AUA42 KIAD-LOWW
Flight info
| Callsign | AUA42 |
|---|---|
| Flight time | 9h 6m |
| Altitude | 31000 |
| Route | JDUBB4 JDUBB DCT BNTLY DCT SCOOB DCT CRPLR DCT TUGGR DCT JAAWY DCT JETER DCT LINND/N0481F330 DCT LACKS DCT JOBOC/M083F330 DCT 4160N DCT 4250N DCT 4340N/M083F350 DCT 4330N DCT 4320N DCT MUDOS/N0476F350 DCT ROXER/N0466F370 DCT NOLSA DCT MARIO DCT SINDO DCT PIVUS/N0464F380 DCT DIBER DCT NETUP DCT STP DCT RAPED DCT PIGOS DCT EKSID DCT NOSTA DCT LUKIM DCT MALUG/N0472F370 DCT ARALD DCT ABTAN |
| Aircraft | B763/H-SDE3FGHIM3RWXY/LB1 |
Departure
| Time | 2026-04-25 13:26 |
|---|---|
| Airport | Washington Dulles International Airport (KIAD) |
Arrival
| Time | 2026-04-25 22:33 |
|---|---|
| Airport | Vienna International Airport (LOWW) |
| Time | Latitude | Longitude | Altitude | Speed | Heading |
|---|---|---|---|---|---|
| 2026-04-25 12:06 | 38.94924 | -77.44931 | 295 ft | 0 kts | 193° |
| 2026-04-25 12:55 | 38.94941 | -77.44926 | 295 ft | 2 kts | 193° |
| 2026-04-25 12:55 | 38.94951 | -77.44923 | 294 ft | 2 kts | 193° |
| 2026-04-25 12:55 | 38.94971 | -77.44917 | 294 ft | 2 kts | 193° |
| 2026-04-25 12:55 | 38.94985 | -77.44913 | 294 ft | 2 kts | 193° |
| 2026-04-25 12:56 | 38.95000 | -77.44908 | 294 ft | 2 kts | 204° |
| 2026-04-25 12:56 | 38.95012 | -77.44898 | 293 ft | 2 kts | 221° |
| 2026-04-25 12:56 | 38.95022 | -77.44885 | 293 ft | 2 kts | 238° |
| 2026-04-25 12:56 | 38.95028 | -77.44867 | 293 ft | 2 kts | 255° |
| 2026-04-25 12:57 | 38.95031 | -77.44852 | 293 ft | 0 kts | 269° |
| 2026-04-25 12:57 | 38.95030 | -77.44846 | 293 ft | 0 kts | 271° |
| 2026-04-25 13:02 | 38.95030 | -77.44851 | 293 ft | 2 kts | 271° |
| 2026-04-25 13:03 | 38.95031 | -77.44884 | 293 ft | 4 kts | 271° |
| 2026-04-25 13:03 | 38.95031 | -77.44938 | 293 ft | 6 kts | 271° |
| 2026-04-25 13:03 | 38.95031 | -77.45005 | 293 ft | 7 kts | 271° |
| 2026-04-25 13:03 | 38.95033 | -77.45063 | 293 ft | 5 kts | 282° |
| 2026-04-25 13:04 | 38.95050 | -77.45085 | 293 ft | 3 kts | 333° |
| 2026-04-25 13:04 | 38.95085 | -77.45095 | 293 ft | 7 kts | 342° |
| 2026-04-25 13:04 | 38.95113 | -77.45167 | 293 ft | 12 kts | 272° |
| 2026-04-25 13:04 | 38.95114 | -77.45295 | 291 ft | 14 kts | 271° |
| 2026-04-25 13:05 | 38.95114 | -77.45320 | 291 ft | 0 kts | 271° |
| 2026-04-25 13:11 | 38.95114 | -77.45365 | 291 ft | 10 kts | 271° |
| 2026-04-25 13:11 | 38.95116 | -77.45470 | 291 ft | 12 kts | 271° |
| 2026-04-25 13:11 | 38.95116 | -77.45478 | 291 ft | 0 kts | 271° |
| 2026-04-25 13:15 | 38.95116 | -77.45480 | 291 ft | 1 kts | 271° |
| 2026-04-25 13:15 | 38.95116 | -77.45535 | 289 ft | 8 kts | 271° |
| 2026-04-25 13:15 | 38.95134 | -77.45594 | 288 ft | 6 kts | 332° |
| 2026-04-25 13:16 | 38.95181 | -77.45599 | 288 ft | 8 kts | 1° |
| 2026-04-25 13:16 | 38.95266 | -77.45598 | 288 ft | 15 kts | 1° |
| 2026-04-25 13:16 | 38.95384 | -77.45596 | 288 ft | 17 kts | 1° |
| 2026-04-25 13:16 | 38.95500 | -77.45595 | 287 ft | 15 kts | 0° |
| 2026-04-25 13:17 | 38.95608 | -77.45594 | 285 ft | 14 kts | 1° |
| 2026-04-25 13:17 | 38.95708 | -77.45592 | 285 ft | 14 kts | 1° |
| 2026-04-25 13:17 | 38.95806 | -77.45591 | 285 ft | 13 kts | 0° |
| 2026-04-25 13:17 | 38.95915 | -77.45589 | 285 ft | 17 kts | 1° |
| 2026-04-25 13:18 | 38.96056 | -77.45588 | 285 ft | 21 kts | 1° |
| 2026-04-25 13:18 | 38.96199 | -77.45586 | 283 ft | 19 kts | 1° |
| 2026-04-25 13:18 | 38.96331 | -77.45584 | 282 ft | 17 kts | 1° |
| 2026-04-25 13:18 | 38.96444 | -77.45583 | 282 ft | 15 kts | 1° |
| 2026-04-25 13:19 | 38.96553 | -77.45581 | 282 ft | 15 kts | 1° |
| 2026-04-25 13:19 | 38.96666 | -77.45579 | 280 ft | 17 kts | 1° |
| 2026-04-25 13:19 | 38.96790 | -77.45577 | 279 ft | 18 kts | 1° |
| 2026-04-25 13:19 | 38.96880 | -77.45576 | 279 ft | 19 kts | 1° |
| 2026-04-25 13:20 | 38.97011 | -77.45621 | 278 ft | 12 kts | 284° |
| 2026-04-25 13:20 | 38.97015 | -77.45731 | 276 ft | 12 kts | 271° |
| 2026-04-25 13:20 | 38.97015 | -77.45776 | 275 ft | 0 kts | 270° |
| 2026-04-25 13:23 | 38.97015 | -77.45784 | 275 ft | 2 kts | 270° |
| 2026-04-25 13:24 | 38.97015 | -77.45827 | 274 ft | 6 kts | 270° |
| 2026-04-25 13:24 | 38.97014 | -77.45890 | 273 ft | 7 kts | 263° |
| 2026-04-25 13:24 | 38.96991 | -77.45927 | 274 ft | 4 kts | 201° |
| 2026-04-25 13:24 | 38.96965 | -77.45932 | 274 ft | 3 kts | 185° |
| 2026-04-25 13:25 | 38.96946 | -77.45934 | 275 ft | 0 kts | 184° |
| 2026-04-25 13:25 | 38.96943 | -77.45934 | 275 ft | 4 kts | 184° |
| 2026-04-25 13:25 | 38.96690 | -77.45939 | 275 ft | 73 kts | 181° |
| 2026-04-25 13:26 | 38.95923 | -77.45947 | 279 ft | 143 kts | 181° |
| 2026-04-25 13:26 | 38.94714 | -77.45961 | 337 ft | 200 kts | 179° |
| 2026-04-25 13:26 | 38.93280 | -77.46092 | 1128 ft | 213 kts | 189° |
| 2026-04-25 13:26 | 38.91819 | -77.46505 | 1896 ft | 216 kts | 188° |
| 2026-04-25 13:27 | 38.90271 | -77.46854 | 1983 ft | 239 kts | 186° |
| 2026-04-25 13:27 | 38.88557 | -77.47179 | 2232 ft | 255 kts | 186° |
| 2026-04-25 13:27 | 38.86780 | -77.47495 | 2811 ft | 259 kts | 186° |
| 2026-04-25 13:27 | 38.85008 | -77.47792 | 3494 ft | 258 kts | 187° |
| 2026-04-25 13:28 | 38.83214 | -77.48083 | 4104 ft | 261 kts | 187° |
| 2026-04-25 13:28 | 38.82008 | -77.48277 | 4468 ft | 264 kts | 187° |
| 2026-04-25 13:28 | 38.79620 | -77.48688 | 5300 ft | 265 kts | 190° |
| 2026-04-25 13:28 | 38.77776 | -77.49070 | 5917 ft | 266 kts | 191° |
| 2026-04-25 13:29 | 38.75918 | -77.49445 | 6527 ft | 269 kts | 191° |
| 2026-04-25 13:29 | 38.74060 | -77.49820 | 7133 ft | 272 kts | 191° |
| 2026-04-25 13:29 | 38.72180 | -77.50198 | 7733 ft | 275 kts | 191° |
| 2026-04-25 13:30 | 38.68370 | -77.50957 | 8922 ft | 279 kts | 192° |
| 2026-04-25 13:30 | 38.66448 | -77.51341 | 9510 ft | 281 kts | 192° |
| 2026-04-25 13:30 | 38.64548 | -77.51718 | 10085 ft | 283 kts | 192° |
| 2026-04-25 13:31 | 38.60569 | -77.52512 | 10851 ft | 304 kts | 192° |
| 2026-04-25 13:31 | 38.58452 | -77.52934 | 10989 ft | 323 kts | 192° |
| 2026-04-25 13:31 | 38.56179 | -77.53384 | 10970 ft | 332 kts | 191° |
| 2026-04-25 13:31 | 38.53897 | -77.53834 | 10960 ft | 327 kts | 192° |
| 2026-04-25 13:32 | 38.51680 | -77.54272 | 10961 ft | 321 kts | 192° |
| 2026-04-25 13:32 | 38.49698 | -77.54664 | 10962 ft | 321 kts | 192° |
| 2026-04-25 13:32 | 38.47299 | -77.55139 | 10965 ft | 324 kts | 192° |
| 2026-04-25 13:32 | 38.45050 | -77.55585 | 10963 ft | 324 kts | 192° |
| 2026-04-25 13:33 | 38.42808 | -77.56027 | 10964 ft | 324 kts | 192° |
| 2026-04-25 13:33 | 38.40717 | -77.56492 | 10955 ft | 322 kts | 198° |
| 2026-04-25 13:33 | 38.38770 | -77.57587 | 11223 ft | 310 kts | 215° |
| 2026-04-25 13:33 | 38.36919 | -77.59132 | 11752 ft | 313 kts | 215° |
| 2026-04-25 13:34 | 38.35096 | -77.60651 | 12230 ft | 320 kts | 216° |
| 2026-04-25 13:34 | 38.33208 | -77.62247 | 12670 ft | 327 kts | 216° |
| 2026-04-25 13:34 | 38.31207 | -77.63742 | 13104 ft | 335 kts | 204° |
| 2026-04-25 13:34 | 38.28935 | -77.64463 | 13585 ft | 343 kts | 187° |
| 2026-04-25 13:35 | 38.26520 | -77.64302 | 14066 ft | 349 kts | 173° |
| 2026-04-25 13:35 | 38.24107 | -77.63818 | 14509 ft | 353 kts | 174° |
| 2026-04-25 13:35 | 38.21658 | -77.63343 | 14944 ft | 356 kts | 174° |
| 2026-04-25 13:35 | 38.19204 | -77.62862 | 15363 ft | 358 kts | 174° |
| 2026-04-25 13:36 | 38.16709 | -77.62370 | 15784 ft | 361 kts | 174° |
| 2026-04-25 13:36 | 38.14203 | -77.61877 | 16211 ft | 365 kts | 174° |
| 2026-04-25 13:36 | 38.11672 | -77.61378 | 16638 ft | 368 kts | 174° |
| 2026-04-25 13:36 | 38.09136 | -77.60839 | 17056 ft | 370 kts | 168° |
| 2026-04-25 13:37 | 38.06723 | -77.59657 | 17506 ft | 376 kts | 151° |
| 2026-04-25 13:37 | 38.04622 | -77.57637 | 17973 ft | 381 kts | 135° |
| 2026-04-25 13:37 | 38.03012 | -77.54961 | 18454 ft | 384 kts | 122° |
| 2026-04-25 13:37 | 38.01642 | -77.52055 | 18902 ft | 387 kts | 122° |
| 2026-04-25 13:38 | 38.00264 | -77.49159 | 19325 ft | 390 kts | 122° |
| 2026-04-25 13:38 | 37.98846 | -77.46158 | 19770 ft | 394 kts | 122° |
| 2026-04-25 13:38 | 37.97441 | -77.43182 | 20216 ft | 396 kts | 122° |
| 2026-04-25 13:38 | 37.96014 | -77.40157 | 20659 ft | 399 kts | 122° |
| 2026-04-25 13:39 | 37.94593 | -77.37148 | 21092 ft | 400 kts | 122° |
| 2026-04-25 13:39 | 37.93148 | -77.34088 | 21542 ft | 402 kts | 122° |
| 2026-04-25 13:39 | 37.91718 | -77.31062 | 21979 ft | 403 kts | 122° |
| 2026-04-25 13:39 | 37.90260 | -77.27977 | 22420 ft | 404 kts | 122° |
| 2026-04-25 13:40 | 37.88820 | -77.24937 | 22861 ft | 404 kts | 122° |
| 2026-04-25 13:40 | 37.87375 | -77.21888 | 23305 ft | 403 kts | 122° |
| 2026-04-25 13:40 | 37.85936 | -77.18855 | 23749 ft | 402 kts | 122° |
| 2026-04-25 13:40 | 37.84486 | -77.15801 | 24154 ft | 403 kts | 122° |
| 2026-04-25 13:41 | 37.83044 | -77.12766 | 24447 ft | 405 kts | 122° |
| 2026-04-25 13:41 | 37.81580 | -77.09689 | 24751 ft | 407 kts | 122° |
| 2026-04-25 13:41 | 37.80123 | -77.06632 | 25055 ft | 409 kts | 122° |
| 2026-04-25 13:41 | 37.78634 | -77.03505 | 25363 ft | 411 kts | 122° |
| 2026-04-25 13:42 | 37.77164 | -77.00426 | 25668 ft | 413 kts | 121° |
| 2026-04-25 13:42 | 37.75676 | -76.97308 | 25972 ft | 414 kts | 121° |
| 2026-04-25 13:42 | 37.74169 | -76.94156 | 26280 ft | 415 kts | 122° |
| 2026-04-25 13:42 | 37.72684 | -76.91053 | 26584 ft | 416 kts | 122° |
| 2026-04-25 13:43 | 37.71177 | -76.87905 | 26891 ft | 417 kts | 122° |
| 2026-04-25 13:43 | 37.69673 | -76.84768 | 27151 ft | 419 kts | 122° |
| 2026-04-25 13:43 | 37.68154 | -76.81602 | 27411 ft | 420 kts | 122° |
| 2026-04-25 13:43 | 37.66645 | -76.78460 | 27664 ft | 422 kts | 121° |
| 2026-04-25 13:44 | 37.65110 | -76.75266 | 27929 ft | 423 kts | 122° |
| 2026-04-25 13:44 | 37.63580 | -76.72086 | 28171 ft | 425 kts | 122° |
| 2026-04-25 13:44 | 37.62028 | -76.68863 | 28353 ft | 428 kts | 121° |
| 2026-04-25 13:44 | 37.60689 | -76.65514 | 28549 ft | 430 kts | 110° |
| 2026-04-25 13:45 | 37.59831 | -76.61923 | 28766 ft | 431 kts | 99° |
| 2026-04-25 13:45 | 37.59491 | -76.58163 | 28982 ft | 431 kts | 88° |
| 2026-04-25 13:45 | 37.59554 | -76.54388 | 29195 ft | 431 kts | 86° |
| 2026-04-25 13:45 | 37.59655 | -76.50558 | 29384 ft | 434 kts | 86° |
| 2026-04-25 13:46 | 37.59763 | -76.46754 | 29571 ft | 436 kts | 86° |
| 2026-04-25 13:46 | 37.59877 | -76.42921 | 29761 ft | 438 kts | 85° |
| 2026-04-25 13:46 | 37.59994 | -76.39076 | 29957 ft | 440 kts | 85° |
| 2026-04-25 13:46 | 37.60112 | -76.35207 | 30149 ft | 441 kts | 85° |
| 2026-04-25 13:47 | 37.60229 | -76.31367 | 30328 ft | 443 kts | 86° |
| 2026-04-25 13:47 | 37.60347 | -76.27459 | 30512 ft | 445 kts | 86° |
| 2026-04-25 13:47 | 37.60463 | -76.23568 | 30696 ft | 446 kts | 86° |
| 2026-04-25 13:47 | 37.60578 | -76.19654 | 30877 ft | 446 kts | 85° |
| 2026-04-25 13:48 | 37.60836 | -76.15730 | 30899 ft | 447 kts | 78° |
| 2026-04-25 13:48 | 37.61934 | -76.07948 | 30910 ft | 455 kts | 77° |
| 2026-04-25 13:49 | 37.63067 | -75.99995 | 30917 ft | 464 kts | 77° |
| 2026-04-25 13:49 | 37.64219 | -75.91921 | 30922 ft | 472 kts | 77° |
| 2026-04-25 13:50 | 37.65391 | -75.83670 | 30924 ft | 481 kts | 77° |
| 2026-04-25 13:50 | 37.66576 | -75.75301 | 30923 ft | 489 kts | 77° |
| 2026-04-25 13:51 | 37.67917 | -75.66803 | 30926 ft | 493 kts | 70° |
| 2026-04-25 13:51 | 37.70798 | -75.58971 | 30939 ft | 490 kts | 51° |
| 2026-04-25 13:52 | 37.75289 | -75.52593 | 30935 ft | 488 kts | 40° |
| 2026-04-25 13:52 | 37.80134 | -75.46460 | 30931 ft | 494 kts | 40° |
| 2026-04-25 13:53 | 37.85044 | -75.40237 | 30934 ft | 498 kts | 40° |
| 2026-04-25 13:53 | 37.89944 | -75.34019 | 30936 ft | 499 kts | 41° |
| 2026-04-25 13:54 | 37.94829 | -75.27806 | 30936 ft | 499 kts | 40° |
| 2026-04-25 13:54 | 37.99756 | -75.21527 | 30941 ft | 499 kts | 40° |
| 2026-04-25 13:55 | 38.04640 | -75.15291 | 30941 ft | 499 kts | 40° |
| 2026-04-25 13:55 | 38.09558 | -75.08997 | 30948 ft | 498 kts | 40° |
| 2026-04-25 13:56 | 38.14426 | -75.02757 | 30955 ft | 497 kts | 40° |
| 2026-04-25 13:56 | 38.19324 | -74.96465 | 30963 ft | 498 kts | 40° |
| 2026-04-25 13:57 | 38.24215 | -74.90166 | 30965 ft | 499 kts | 41° |
| 2026-04-25 13:57 | 38.28433 | -74.83025 | 30982 ft | 509 kts | 53° |
| 2026-04-25 13:58 | 38.32206 | -74.75401 | 30974 ft | 511 kts | 53° |
| 2026-04-25 13:58 | 38.35993 | -74.67665 | 30967 ft | 509 kts | 53° |
| 2026-04-25 13:59 | 38.39728 | -74.59996 | 30981 ft | 510 kts | 53° |
| 2026-04-25 13:59 | 38.43483 | -74.52264 | 30979 ft | 511 kts | 53° |
| 2026-04-25 14:00 | 38.47221 | -74.44546 | 30982 ft | 511 kts | 53° |
| 2026-04-25 14:00 | 38.50957 | -74.36810 | 30987 ft | 510 kts | 53° |
| 2026-04-25 14:01 | 38.54677 | -74.29093 | 30993 ft | 511 kts | 53° |
| 2026-04-25 14:01 | 38.58413 | -74.21321 | 30992 ft | 512 kts | 53° |
| 2026-04-25 14:02 | 38.62123 | -74.13584 | 30987 ft | 511 kts | 53° |
| 2026-04-25 14:02 | 38.65850 | -74.05798 | 30991 ft | 512 kts | 53° |
| 2026-04-25 14:03 | 38.69455 | -73.97885 | 30996 ft | 517 kts | 60° |
| 2026-04-25 14:03 | 38.72311 | -73.89344 | 31000 ft | 521 kts | 62° |
| 2026-04-25 14:04 | 38.75123 | -73.80776 | 31010 ft | 522 kts | 62° |
| 2026-04-25 14:04 | 38.77927 | -73.72174 | 31008 ft | 522 kts | 62° |
| 2026-04-25 14:05 | 38.80714 | -73.63589 | 31018 ft | 522 kts | 62° |
| 2026-04-25 14:05 | 38.83508 | -73.54952 | 31020 ft | 522 kts | 62° |
| 2026-04-25 14:06 | 38.86283 | -73.46346 | 31031 ft | 521 kts | 62° |
| 2026-04-25 14:06 | 38.89053 | -73.37734 | 31028 ft | 522 kts | 62° |
| 2026-04-25 14:07 | 38.91807 | -73.29140 | 31022 ft | 521 kts | 62° |
| 2026-04-25 14:07 | 38.94564 | -73.20511 | 31028 ft | 519 kts | 62° |
| 2026-04-25 14:08 | 38.97300 | -73.11924 | 31039 ft | 519 kts | 62° |
| 2026-04-25 14:08 | 39.00039 | -73.03301 | 31045 ft | 520 kts | 62° |
| 2026-04-25 14:09 | 39.02768 | -72.94682 | 31042 ft | 520 kts | 62° |
| 2026-04-25 14:09 | 39.05494 | -72.86043 | 31045 ft | 519 kts | 62° |
| 2026-04-25 14:10 | 39.08216 | -72.77392 | 31050 ft | 520 kts | 62° |
| 2026-04-25 14:10 | 39.10916 | -72.68781 | 31063 ft | 519 kts | 61° |
| 2026-04-25 14:11 | 39.13618 | -72.60141 | 31069 ft | 518 kts | 61° |
| 2026-04-25 14:11 | 39.16316 | -72.51486 | 31071 ft | 518 kts | 62° |
| 2026-04-25 14:12 | 39.18993 | -72.42872 | 31074 ft | 519 kts | 61° |
| 2026-04-25 14:12 | 39.21670 | -72.34225 | 31071 ft | 518 kts | 62° |
| 2026-04-25 14:13 | 39.24353 | -72.25539 | 31072 ft | 520 kts | 62° |
| 2026-04-25 14:13 | 39.27006 | -72.16917 | 31072 ft | 516 kts | 61° |
| 2026-04-25 14:14 | 39.29668 | -72.08244 | 31074 ft | 518 kts | 62° |
| 2026-04-25 14:14 | 39.32318 | -71.99579 | 31077 ft | 518 kts | 61° |
| 2026-04-25 14:15 | 39.34960 | -71.90913 | 31080 ft | 518 kts | 61° |
| 2026-04-25 14:15 | 39.37605 | -71.82207 | 31086 ft | 518 kts | 61° |
| 2026-04-25 14:16 | 39.40225 | -71.73546 | 31086 ft | 517 kts | 62° |
| 2026-04-25 14:16 | 39.42149 | -71.64474 | 31092 ft | 525 kts | 69° |
| 2026-04-25 14:17 | 39.43872 | -71.55263 | 31091 ft | 523 kts | 69° |
| 2026-04-25 14:17 | 39.45557 | -71.46103 | 31098 ft | 525 kts | 69° |
| 2026-04-25 14:18 | 39.47242 | -71.36849 | 31096 ft | 525 kts | 69° |
| 2026-04-25 14:18 | 39.48907 | -71.27656 | 31092 ft | 524 kts | 70° |
| 2026-04-25 14:19 | 39.50573 | -71.18406 | 31097 ft | 526 kts | 69° |
| 2026-04-25 14:19 | 39.52229 | -71.09164 | 31095 ft | 523 kts | 69° |
| 2026-04-25 14:20 | 39.53872 | -70.99969 | 31101 ft | 524 kts | 69° |
| 2026-04-25 14:20 | 39.55500 | -70.90794 | 31097 ft | 523 kts | 69° |
| 2026-04-25 14:21 | 39.57132 | -70.81552 | 31101 ft | 523 kts | 69° |
| 2026-04-25 14:21 | 39.58762 | -70.72284 | 31105 ft | 523 kts | 69° |
| 2026-04-25 14:22 | 39.60374 | -70.63074 | 31106 ft | 525 kts | 69° |
| 2026-04-25 14:22 | 39.61984 | -70.53816 | 31105 ft | 524 kts | 68° |
| 2026-04-25 14:23 | 39.63584 | -70.44572 | 31105 ft | 523 kts | 69° |
| 2026-04-25 14:23 | 39.65177 | -70.35329 | 31107 ft | 523 kts | 68° |
| 2026-04-25 14:24 | 39.66768 | -70.26049 | 31100 ft | 523 kts | 69° |
| 2026-04-25 14:24 | 39.68344 | -70.16813 | 31099 ft | 525 kts | 69° |
| 2026-04-25 14:25 | 39.69908 | -70.07578 | 31103 ft | 520 kts | 68° |
| 2026-04-25 14:25 | 39.71473 | -69.98322 | 31105 ft | 522 kts | 68° |
| 2026-04-25 14:26 | 39.73019 | -69.89118 | 31111 ft | 524 kts | 68° |
| 2026-04-25 14:26 | 39.74560 | -69.79878 | 31108 ft | 519 kts | 68° |
| 2026-04-25 14:27 | 39.76090 | -69.70676 | 31102 ft | 517 kts | 68° |
| 2026-04-25 14:27 | 39.77609 | -69.61507 | 31101 ft | 519 kts | 68° |
| 2026-04-25 14:28 | 39.79122 | -69.52303 | 31110 ft | 519 kts | 68° |
| 2026-04-25 14:28 | 39.80627 | -69.43095 | 31110 ft | 519 kts | 67° |
| 2026-04-25 14:29 | 39.82129 | -69.33875 | 31108 ft | 519 kts | 68° |
| 2026-04-25 14:29 | 39.83623 | -69.24651 | 31106 ft | 521 kts | 68° |
| 2026-04-25 14:30 | 39.85100 | -69.15461 | 31100 ft | 515 kts | 68° |
| 2026-04-25 14:30 | 39.87308 | -69.01678 | 31102 ft | 518 kts | 68° |
| 2026-04-25 14:31 | 39.88769 | -68.92474 | 31101 ft | 519 kts | 67° |
| 2026-04-25 14:31 | 39.90232 | -68.83214 | 31101 ft | 518 kts | 67° |
| 2026-04-25 14:32 | 39.91672 | -68.74060 | 31096 ft | 519 kts | 67° |
| 2026-04-25 14:32 | 39.93121 | -68.64786 | 31089 ft | 518 kts | 67° |
| 2026-04-25 14:33 | 39.94557 | -68.55553 | 31104 ft | 519 kts | 67° |
| 2026-04-25 14:33 | 39.95983 | -68.46330 | 31095 ft | 520 kts | 66° |
| 2026-04-25 14:34 | 39.97413 | -68.37021 | 31090 ft | 519 kts | 66° |
| 2026-04-25 14:34 | 39.98828 | -68.27766 | 31081 ft | 520 kts | 67° |
| 2026-04-25 14:35 | 40.00167 | -68.18430 | 31088 ft | 528 kts | 71° |
| 2026-04-25 14:35 | 40.01142 | -68.08900 | 31096 ft | 531 kts | 71° |
| 2026-04-25 14:36 | 40.02111 | -67.99320 | 31101 ft | 530 kts | 71° |
| 2026-04-25 14:36 | 40.03071 | -67.89749 | 31094 ft | 533 kts | 71° |
| 2026-04-25 14:37 | 40.04017 | -67.80212 | 31086 ft | 528 kts | 71° |
| 2026-04-25 14:37 | 40.04955 | -67.70680 | 31088 ft | 526 kts | 70° |
| 2026-04-25 14:38 | 40.05890 | -67.61134 | 31087 ft | 527 kts | 70° |
| 2026-04-25 14:38 | 40.06810 | -67.51637 | 31089 ft | 527 kts | 70° |
| 2026-04-25 14:39 | 40.07722 | -67.42136 | 31077 ft | 527 kts | 70° |
| 2026-04-25 14:39 | 40.08632 | -67.32574 | 31063 ft | 530 kts | 71° |
| 2026-04-25 14:40 | 40.09536 | -67.22971 | 31061 ft | 530 kts | 71° |
| 2026-04-25 14:40 | 40.10431 | -67.13390 | 31084 ft | 531 kts | 70° |
| 2026-04-25 14:41 | 40.11324 | -67.03769 | 31078 ft | 534 kts | 71° |
| 2026-04-25 14:41 | 40.12164 | -66.94084 | 31085 ft | 527 kts | 66° |
| 2026-04-25 14:42 | 40.13017 | -66.89470 | 31090 ft | 515 kts | 62° |
| 2026-04-25 14:42 | 40.13610 | -66.86455 | 31081 ft | 518 kts | 63° |
| 2026-04-25 14:42 | 40.15446 | -66.75690 | 31082 ft | 519 kts | 65° |
| 2026-04-25 14:43 | 40.16931 | -66.66369 | 31079 ft | 520 kts | 65° |
| 2026-04-25 14:43 | 40.18373 | -66.57107 | 31079 ft | 518 kts | 65° |
| 2026-04-25 14:44 | 40.19799 | -66.47860 | 31083 ft | 518 kts | 66° |
| 2026-04-25 14:44 | 40.21216 | -66.38606 | 31076 ft | 519 kts | 66° |
| 2026-04-25 14:45 | 40.22630 | -66.29311 | 31054 ft | 519 kts | 67° |
| 2026-04-25 14:45 | 40.24039 | -66.19988 | 31038 ft | 517 kts | 68° |
| 2026-04-25 14:46 | 40.25438 | -66.10712 | 31044 ft | 519 kts | 68° |
| 2026-04-25 14:46 | 40.26825 | -66.01439 | 31039 ft | 521 kts | 68° |
| 2026-04-25 14:47 | 40.27980 | -65.93665 | 31045 ft | 518 kts | 68° |
| 2026-04-25 14:47 | 40.29579 | -65.82859 | 31039 ft | 516 kts | 68° |
| 2026-04-25 14:48 | 40.30934 | -65.73637 | 31040 ft | 513 kts | 69° |
| 2026-04-25 14:48 | 40.32276 | -65.64455 | 31035 ft | 513 kts | 69° |
| 2026-04-25 14:49 | 40.33616 | -65.55240 | 31032 ft | 514 kts | 69° |
| 2026-04-25 14:49 | 40.34955 | -65.45959 | 31024 ft | 512 kts | 69° |
| 2026-04-25 14:50 | 40.36266 | -65.36826 | 31040 ft | 509 kts | 69° |
| 2026-04-25 14:50 | 40.37577 | -65.27660 | 31027 ft | 510 kts | 71° |
| 2026-04-25 14:51 | 40.38879 | -65.18475 | 31027 ft | 509 kts | 71° |
| 2026-04-25 14:51 | 40.40155 | -65.09432 | 31040 ft | 505 kts | 71° |
| 2026-04-25 14:52 | 40.41442 | -65.00259 | 31003 ft | 506 kts | 71° |
| 2026-04-25 14:52 | 40.42491 | -64.92729 | 31019 ft | 504 kts | 71° |
| 2026-04-25 14:53 | 40.43966 | -64.82089 | 31005 ft | 503 kts | 72° |
| 2026-04-25 14:53 | 40.45215 | -64.73028 | 30999 ft | 504 kts | 72° |
| 2026-04-25 14:54 | 40.46450 | -64.63998 | 30990 ft | 502 kts | 72° |
| 2026-04-25 14:54 | 40.47686 | -64.54917 | 30994 ft | 500 kts | 72° |
| 2026-04-25 14:55 | 40.48900 | -64.45934 | 30976 ft | 498 kts | 72° |
| 2026-04-25 14:55 | 40.50106 | -64.36966 | 30992 ft | 498 kts | 72° |
| 2026-04-25 14:56 | 40.51308 | -64.27966 | 30986 ft | 496 kts | 73° |
| 2026-04-25 14:56 | 40.52495 | -64.19029 | 31008 ft | 494 kts | 74° |
| 2026-04-25 14:57 | 40.53675 | -64.10089 | 30968 ft | 493 kts | 74° |
| 2026-04-25 14:57 | 40.54842 | -64.01192 | 30978 ft | 495 kts | 74° |
| 2026-04-25 14:58 | 40.56010 | -63.92222 | 30972 ft | 493 kts | 74° |
| 2026-04-25 14:58 | 40.57158 | -63.83360 | 30993 ft | 491 kts | 74° |
| 2026-04-25 14:59 | 40.58297 | -63.74499 | 30980 ft | 485 kts | 75° |
| 2026-04-25 14:59 | 40.59424 | -63.65694 | 30966 ft | 485 kts | 75° |
| 2026-04-25 15:00 | 40.60532 | -63.56981 | 30954 ft | 483 kts | 75° |
| 2026-04-25 15:00 | 40.61637 | -63.48232 | 30988 ft | 482 kts | 75° |
| 2026-04-25 15:01 | 40.62725 | -63.39552 | 30931 ft | 477 kts | 75° |
| 2026-04-25 15:01 | 40.63803 | -63.30916 | 30974 ft | 478 kts | 76° |
| 2026-04-25 15:02 | 40.64880 | -63.22229 | 30969 ft | 477 kts | 76° |
| 2026-04-25 15:02 | 40.65943 | -63.13591 | 30968 ft | 474 kts | 76° |
| 2026-04-25 15:03 | 40.66994 | -63.05014 | 30952 ft | 474 kts | 76° |
| 2026-04-25 15:03 | 40.68038 | -62.96423 | 30939 ft | 471 kts | 76° |
| 2026-04-25 15:04 | 40.69072 | -62.87866 | 30945 ft | 474 kts | 77° |
| 2026-04-25 15:04 | 40.70101 | -62.79280 | 30930 ft | 469 kts | 77° |
| 2026-04-25 15:05 | 40.71116 | -62.70776 | 30967 ft | 468 kts | 77° |
| 2026-04-25 15:06 | 40.72620 | -62.58069 | 30928 ft | 466 kts | 77° |
| 2026-04-25 15:06 | 40.73609 | -62.49622 | 30913 ft | 464 kts | 77° |
| 2026-04-25 15:07 | 40.74599 | -62.41153 | 30948 ft | 467 kts | 77° |
| 2026-04-25 15:07 | 40.75576 | -62.32711 | 30900 ft | 460 kts | 78° |
| 2026-04-25 15:08 | 40.76532 | -62.24394 | 30921 ft | 459 kts | 78° |
| 2026-04-25 15:08 | 40.77490 | -62.16005 | 30892 ft | 460 kts | 78° |
| 2026-04-25 15:09 | 40.78442 | -62.07641 | 30902 ft | 460 kts | 78° |
| 2026-04-25 15:09 | 40.79849 | -61.95132 | 30878 ft | 458 kts | 78° |
| 2026-04-25 15:10 | 40.80780 | -61.86802 | 30924 ft | 456 kts | 78° |
| 2026-04-25 15:11 | 40.82159 | -61.74339 | 30905 ft | 458 kts | 78° |
| 2026-04-25 15:11 | 40.83075 | -61.66002 | 30908 ft | 458 kts | 79° |
| 2026-04-25 15:12 | 40.84438 | -61.53475 | 30893 ft | 458 kts | 78° |
| 2026-04-25 15:12 | 40.85044 | -61.47879 | 30836 ft | 459 kts | 78° |
| 2026-04-25 15:13 | 40.86681 | -61.32583 | 30841 ft | 458 kts | 79° |
| 2026-04-25 15:14 | 40.87575 | -61.24160 | 30865 ft | 461 kts | 79° |
| 2026-04-25 15:14 | 40.88458 | -61.15769 | 30862 ft | 456 kts | 79° |
| 2026-04-25 15:15 | 40.89320 | -61.07516 | 30848 ft | 456 kts | 79° |
| 2026-04-25 15:15 | 40.90191 | -60.99127 | 30839 ft | 459 kts | 79° |
| 2026-04-25 15:16 | 40.91056 | -60.90736 | 30831 ft | 460 kts | 79° |
| 2026-04-25 15:16 | 40.92344 | -60.78118 | 30867 ft | 459 kts | 79° |
| 2026-04-25 15:17 | 40.93605 | -60.65633 | 30813 ft | 456 kts | 79° |
| 2026-04-25 15:18 | 40.94438 | -60.57305 | 30829 ft | 458 kts | 79° |
| 2026-04-25 15:18 | 40.95689 | -60.44686 | 30826 ft | 458 kts | 79° |
| 2026-04-25 15:19 | 40.96372 | -60.37722 | 30877 ft | 459 kts | 79° |
| 2026-04-25 15:19 | 40.97327 | -60.27929 | 30825 ft | 454 kts | 79° |
| 2026-04-25 15:20 | 40.98132 | -60.19603 | 30810 ft | 456 kts | 79° |
| 2026-04-25 15:20 | 40.98938 | -60.11201 | 30814 ft | 459 kts | 79° |
| 2026-04-25 15:21 | 40.99735 | -60.02832 | 30830 ft | 459 kts | 79° |
| 2026-04-25 15:21 | 41.00794 | -59.94487 | 30820 ft | 456 kts | 76° |
| 2026-04-25 15:22 | 41.01996 | -59.86209 | 30806 ft | 457 kts | 76° |
| 2026-04-25 15:22 | 41.03186 | -59.77949 | 30804 ft | 455 kts | 76° |
| 2026-04-25 15:23 | 41.04376 | -59.69632 | 30794 ft | 458 kts | 76° |
| 2026-04-25 15:23 | 41.05555 | -59.61343 | 30787 ft | 460 kts | 76° |
| 2026-04-25 15:24 | 41.06741 | -59.52961 | 30809 ft | 458 kts | 76° |
| 2026-04-25 15:24 | 41.07325 | -59.48804 | 30981 ft | 455 kts | 76° |
| 2026-04-25 15:24 | 41.07710 | -59.46063 | 31085 ft | 453 kts | 76° |
| 2026-04-25 15:25 | 41.08472 | -59.40628 | 31275 ft | 450 kts | 76° |
| 2026-04-25 15:25 | 41.09041 | -59.36552 | 31359 ft | 450 kts | 76° |
| 2026-04-25 15:25 | 41.10188 | -59.28315 | 31496 ft | 452 kts | 76° |
| 2026-04-25 15:26 | 41.11328 | -59.20073 | 31657 ft | 454 kts | 77° |
| 2026-04-25 15:26 | 41.12466 | -59.11803 | 31828 ft | 456 kts | 76° |
| 2026-04-25 15:27 | 41.13599 | -59.03525 | 31982 ft | 458 kts | 76° |
| 2026-04-25 15:27 | 41.14740 | -58.95138 | 32143 ft | 460 kts | 76° |
| 2026-04-25 15:28 | 41.15302 | -58.91001 | 32209 ft | 461 kts | 76° |
| 2026-04-25 15:28 | 41.16443 | -58.82541 | 32371 ft | 463 kts | 77° |
| 2026-04-25 15:29 | 41.17577 | -58.74089 | 32514 ft | 466 kts | 77° |
| 2026-04-25 15:29 | 41.18707 | -58.65612 | 32662 ft | 468 kts | 77° |
| 2026-04-25 15:30 | 41.19844 | -58.57038 | 32745 ft | 472 kts | 77° |
| 2026-04-25 15:30 | 41.20993 | -58.48323 | 32752 ft | 479 kts | 77° |
| 2026-04-25 15:31 | 41.22138 | -58.39582 | 32749 ft | 484 kts | 77° |
| 2026-04-25 15:31 | 41.23294 | -58.30702 | 32728 ft | 489 kts | 78° |
| 2026-04-25 15:32 | 41.24456 | -58.21711 | 32747 ft | 490 kts | 78° |
| 2026-04-25 15:32 | 41.25605 | -58.12774 | 32741 ft | 489 kts | 77° |
| 2026-04-25 15:33 | 41.27311 | -57.99398 | 32736 ft | 492 kts | 78° |
| 2026-04-25 15:33 | 41.28448 | -57.90409 | 32733 ft | 491 kts | 78° |
| 2026-04-25 15:34 | 41.29570 | -57.81482 | 32738 ft | 491 kts | 78° |
| 2026-04-25 15:34 | 41.30505 | -57.73987 | 32727 ft | 491 kts | 78° |
| 2026-04-25 15:35 | 41.32364 | -57.58987 | 32728 ft | 493 kts | 78° |
| 2026-04-25 15:36 | 41.34031 | -57.45394 | 32721 ft | 494 kts | 78° |
| 2026-04-25 15:36 | 41.35130 | -57.36353 | 32717 ft | 495 kts | 78° |
| 2026-04-25 15:37 | 41.36225 | -57.27281 | 32696 ft | 495 kts | 78° |
| 2026-04-25 15:37 | 41.37312 | -57.18216 | 32687 ft | 496 kts | 78° |
| 2026-04-25 15:38 | 41.38399 | -57.09085 | 32688 ft | 498 kts | 78° |
| 2026-04-25 15:38 | 41.39476 | -56.99974 | 32676 ft | 497 kts | 78° |
| 2026-04-25 15:39 | 41.40550 | -56.90837 | 32691 ft | 499 kts | 78° |
| 2026-04-25 15:39 | 41.41614 | -56.81707 | 32680 ft | 500 kts | 78° |
| 2026-04-25 15:40 | 41.42322 | -56.75597 | 32678 ft | 500 kts | 78° |
| 2026-04-25 15:40 | 41.43732 | -56.63345 | 32678 ft | 500 kts | 78° |
| 2026-04-25 15:41 | 41.44781 | -56.54155 | 32679 ft | 502 kts | 78° |
| 2026-04-25 15:41 | 41.45831 | -56.44890 | 32669 ft | 503 kts | 78° |
| 2026-04-25 15:42 | 41.46869 | -56.35652 | 32662 ft | 504 kts | 78° |
| 2026-04-25 15:42 | 41.47905 | -56.26366 | 32653 ft | 504 kts | 79° |
| 2026-04-25 15:43 | 41.48932 | -56.17097 | 32655 ft | 508 kts | 79° |
| 2026-04-25 15:43 | 41.49963 | -56.07719 | 32651 ft | 508 kts | 79° |
| 2026-04-25 15:44 | 41.50979 | -55.98399 | 32658 ft | 508 kts | 79° |
| 2026-04-25 15:44 | 41.51991 | -55.89041 | 32646 ft | 507 kts | 79° |
| 2026-04-25 15:45 | 41.52992 | -55.79725 | 32639 ft | 508 kts | 79° |
| 2026-04-25 15:45 | 41.53662 | -55.73443 | 32656 ft | 510 kts | 79° |
| 2026-04-25 15:46 | 41.54984 | -55.60948 | 32645 ft | 509 kts | 79° |
| 2026-04-25 15:46 | 41.55976 | -55.51482 | 32649 ft | 512 kts | 79° |
| 2026-04-25 15:47 | 41.56956 | -55.42063 | 32637 ft | 513 kts | 79° |
| 2026-04-25 15:47 | 41.57930 | -55.32614 | 32631 ft | 514 kts | 80° |
| 2026-04-25 15:48 | 41.58901 | -55.23130 | 32624 ft | 514 kts | 80° |
| 2026-04-25 15:48 | 41.59863 | -55.13643 | 32617 ft | 515 kts | 80° |
| 2026-04-25 15:49 | 41.60824 | -55.04093 | 32619 ft | 516 kts | 81° |
| 2026-04-25 15:49 | 41.61776 | -54.94541 | 32625 ft | 518 kts | 81° |
| 2026-04-25 15:50 | 41.62717 | -54.85023 | 32617 ft | 515 kts | 81° |
| 2026-04-25 15:50 | 41.63650 | -54.75504 | 32624 ft | 517 kts | 81° |
| 2026-04-25 15:51 | 41.64428 | -54.67499 | 32622 ft | 517 kts | 80° |
| 2026-04-25 15:51 | 41.65501 | -54.56369 | 32620 ft | 517 kts | 81° |
| 2026-04-25 15:52 | 41.66417 | -54.46768 | 32609 ft | 518 kts | 81° |
| 2026-04-25 15:52 | 41.67324 | -54.37189 | 32617 ft | 519 kts | 81° |
| 2026-04-25 15:53 | 41.68225 | -54.27579 | 32604 ft | 519 kts | 82° |
| 2026-04-25 15:53 | 41.69120 | -54.17932 | 32606 ft | 521 kts | 82° |
| 2026-04-25 15:54 | 41.70002 | -54.08342 | 32601 ft | 519 kts | 81° |
| 2026-04-25 15:54 | 41.70880 | -53.98713 | 32601 ft | 521 kts | 82° |
| 2026-04-25 15:55 | 41.71756 | -53.89019 | 32596 ft | 522 kts | 82° |
| 2026-04-25 15:55 | 41.72619 | -53.79370 | 32599 ft | 523 kts | 82° |
| 2026-04-25 15:56 | 41.73479 | -53.69649 | 32594 ft | 522 kts | 82° |
| 2026-04-25 15:56 | 41.74324 | -53.60014 | 32595 ft | 522 kts | 82° |
| 2026-04-25 15:57 | 41.75167 | -53.50310 | 32587 ft | 523 kts | 82° |
| 2026-04-25 15:57 | 41.76003 | -53.40587 | 32589 ft | 524 kts | 82° |
| 2026-04-25 15:58 | 41.76834 | -53.30818 | 32587 ft | 525 kts | 83° |
| 2026-04-25 15:58 | 41.77651 | -53.21123 | 32586 ft | 525 kts | 83° |
| 2026-04-25 15:59 | 41.78465 | -53.11359 | 32586 ft | 525 kts | 83° |
| 2026-04-25 15:59 | 41.79272 | -53.01581 | 32584 ft | 527 kts | 83° |
| 2026-04-25 16:00 | 41.79803 | -52.95081 | 32574 ft | 527 kts | 83° |
| 2026-04-25 16:00 | 41.80861 | -52.82018 | 32566 ft | 529 kts | 83° |
| 2026-04-25 16:01 | 41.81648 | -52.72158 | 32553 ft | 528 kts | 83° |
| 2026-04-25 16:01 | 41.82426 | -52.62325 | 32565 ft | 529 kts | 83° |
| 2026-04-25 16:02 | 41.83186 | -52.52598 | 32556 ft | 527 kts | 83° |
| 2026-04-25 16:02 | 41.83944 | -52.42786 | 32571 ft | 529 kts | 84° |
| 2026-04-25 16:03 | 41.84701 | -52.32875 | 32560 ft | 530 kts | 84° |
| 2026-04-25 16:03 | 41.85444 | -52.23054 | 32568 ft | 528 kts | 84° |
| 2026-04-25 16:04 | 41.86179 | -52.13193 | 32555 ft | 531 kts | 85° |
| 2026-04-25 16:04 | 41.86904 | -52.03378 | 32569 ft | 530 kts | 85° |
| 2026-04-25 16:05 | 41.87623 | -51.93517 | 32568 ft | 530 kts | 85° |
| 2026-04-25 16:06 | 41.88695 | -51.78589 | 32544 ft | 533 kts | 85° |
| 2026-04-25 16:06 | 41.89395 | -51.68698 | 32555 ft | 531 kts | 85° |
| 2026-04-25 16:07 | 41.90087 | -51.58810 | 32549 ft | 534 kts | 85° |
| 2026-04-25 16:07 | 41.90775 | -51.48822 | 32545 ft | 535 kts | 85° |
| 2026-04-25 16:08 | 41.91451 | -51.38913 | 32561 ft | 536 kts | 85° |
| 2026-04-25 16:08 | 41.92122 | -51.28925 | 32544 ft | 534 kts | 86° |
| 2026-04-25 16:09 | 41.92784 | -51.18951 | 32559 ft | 536 kts | 86° |
| 2026-04-25 16:09 | 41.93440 | -51.08927 | 32556 ft | 536 kts | 86° |
| 2026-04-25 16:10 | 41.94083 | -50.98963 | 32556 ft | 537 kts | 86° |
| 2026-04-25 16:10 | 41.94723 | -50.88921 | 32556 ft | 537 kts | 86° |
| 2026-04-25 16:11 | 41.95354 | -50.78877 | 32562 ft | 538 kts | 87° |
| 2026-04-25 16:11 | 41.95977 | -50.68831 | 32547 ft | 539 kts | 86° |
| 2026-04-25 16:12 | 41.96592 | -50.58759 | 32557 ft | 541 kts | 87° |
| 2026-04-25 16:12 | 41.97202 | -50.48619 | 32546 ft | 543 kts | 87° |
| 2026-04-25 16:13 | 41.97803 | -50.38491 | 32566 ft | 544 kts | 87° |
| 2026-04-25 16:13 | 41.98396 | -50.28337 | 32558 ft | 543 kts | 88° |
| 2026-04-25 16:14 | 41.98980 | -50.18180 | 32573 ft | 544 kts | 88° |
| 2026-04-25 16:14 | 41.99558 | -50.07960 | 32577 ft | 547 kts | 88° |
| 2026-04-25 16:15 | 42.00202 | -49.97787 | 32561 ft | 549 kts | 83° |
| 2026-04-25 16:15 | 42.01743 | -49.87661 | 32562 ft | 549 kts | 80° |
| 2026-04-25 16:16 | 42.03243 | -49.77521 | 32565 ft | 552 kts | 81° |
| 2026-04-25 16:16 | 42.04697 | -49.67419 | 32564 ft | 552 kts | 81° |
| 2026-04-25 16:17 | 42.06144 | -49.57250 | 32569 ft | 552 kts | 81° |
| 2026-04-25 16:17 | 42.07589 | -49.47019 | 32582 ft | 551 kts | 81° |
| 2026-04-25 16:18 | 42.09014 | -49.36853 | 32559 ft | 553 kts | 81° |
| 2026-04-25 16:18 | 42.10436 | -49.26648 | 32535 ft | 552 kts | 82° |
| 2026-04-25 16:19 | 42.11838 | -49.16511 | 32585 ft | 552 kts | 82° |
| 2026-04-25 16:19 | 42.13243 | -49.06286 | 32548 ft | 552 kts | 82° |
| 2026-04-25 16:20 | 42.15321 | -48.91022 | 32538 ft | 554 kts | 82° |
| 2026-04-25 16:21 | 42.17393 | -48.75655 | 32552 ft | 552 kts | 82° |
| 2026-04-25 16:21 | 42.18754 | -48.65460 | 32550 ft | 554 kts | 82° |
| 2026-04-25 16:22 | 42.20116 | -48.55196 | 32544 ft | 556 kts | 82° |
| 2026-04-25 16:22 | 42.21473 | -48.44897 | 32541 ft | 556 kts | 82° |
| 2026-04-25 16:23 | 42.22821 | -48.34585 | 32540 ft | 557 kts | 83° |
| 2026-04-25 16:23 | 42.24158 | -48.24290 | 32538 ft | 556 kts | 83° |
| 2026-04-25 16:24 | 42.25491 | -48.13937 | 32533 ft | 558 kts | 83° |
| 2026-04-25 16:24 | 42.26811 | -48.03608 | 32547 ft | 558 kts | 83° |
| 2026-04-25 16:25 | 42.28119 | -47.93306 | 32569 ft | 557 kts | 83° |
| 2026-04-25 16:25 | 42.29432 | -47.82890 | 32557 ft | 559 kts | 84° |
| 2026-04-25 16:26 | 42.30727 | -47.72538 | 32545 ft | 559 kts | 84° |
| 2026-04-25 16:26 | 42.32015 | -47.62143 | 32554 ft | 561 kts | 84° |
| 2026-04-25 16:27 | 42.33297 | -47.51739 | 32553 ft | 560 kts | 84° |
| 2026-04-25 16:27 | 42.34570 | -47.41324 | 32558 ft | 560 kts | 84° |
| 2026-04-25 16:28 | 42.35827 | -47.30953 | 32544 ft | 561 kts | 85° |
| 2026-04-25 16:28 | 42.37085 | -47.20491 | 32540 ft | 559 kts | 85° |
| 2026-04-25 16:29 | 42.38329 | -47.10064 | 32549 ft | 561 kts | 85° |
| 2026-04-25 16:29 | 42.39570 | -46.99590 | 32547 ft | 561 kts | 85° |
| 2026-04-25 16:30 | 42.40795 | -46.89153 | 32551 ft | 560 kts | 85° |
| 2026-04-25 16:30 | 42.42002 | -46.78780 | 32557 ft | 560 kts | 85° |
| 2026-04-25 16:31 | 42.43214 | -46.68291 | 32562 ft | 561 kts | 85° |
| 2026-04-25 16:31 | 42.44412 | -46.57826 | 32563 ft | 563 kts | 85° |
| 2026-04-25 16:32 | 42.45608 | -46.47298 | 32566 ft | 560 kts | 85° |
| 2026-04-25 16:32 | 42.46785 | -46.36842 | 32572 ft | 564 kts | 85° |
| 2026-04-25 16:33 | 42.47961 | -46.26326 | 32551 ft | 561 kts | 86° |
| 2026-04-25 16:33 | 42.49115 | -46.15908 | 32564 ft | 560 kts | 87° |
| 2026-04-25 16:34 | 42.50267 | -46.05395 | 32578 ft | 563 kts | 86° |
| 2026-04-25 16:34 | 42.51414 | -45.94867 | 32561 ft | 561 kts | 86° |
| 2026-04-25 16:35 | 42.52546 | -45.84372 | 32574 ft | 562 kts | 87° |
| 2026-04-25 16:35 | 42.53677 | -45.73806 | 32569 ft | 564 kts | 87° |
| 2026-04-25 16:36 | 42.54785 | -45.63341 | 32567 ft | 561 kts | 86° |
| 2026-04-25 16:36 | 42.55894 | -45.52780 | 32573 ft | 563 kts | 87° |
| 2026-04-25 16:37 | 42.56990 | -45.42257 | 32590 ft | 560 kts | 87° |
| 2026-04-25 16:37 | 42.58074 | -45.31723 | 32571 ft | 563 kts | 88° |
| 2026-04-25 16:38 | 42.59149 | -45.21204 | 32577 ft | 562 kts | 88° |
| 2026-04-25 16:38 | 42.60218 | -45.10646 | 32579 ft | 564 kts | 88° |
| 2026-04-25 16:39 | 42.61274 | -45.00120 | 32599 ft | 563 kts | 88° |
| 2026-04-25 16:39 | 42.62327 | -44.89507 | 32580 ft | 564 kts | 88° |
| 2026-04-25 16:40 | 42.63364 | -44.78961 | 32584 ft | 562 kts | 88° |
| 2026-04-25 16:40 | 42.64390 | -44.68432 | 32591 ft | 564 kts | 88° |
| 2026-04-25 16:41 | 42.65408 | -44.57878 | 32588 ft | 562 kts | 88° |
| 2026-04-25 16:41 | 42.66912 | -44.42097 | 32605 ft | 561 kts | 88° |
| 2026-04-25 16:42 | 42.67904 | -44.31559 | 32609 ft | 562 kts | 89° |
| 2026-04-25 16:42 | 42.68890 | -44.20967 | 32600 ft | 560 kts | 89° |
| 2026-04-25 16:43 | 42.69858 | -44.10466 | 32609 ft | 560 kts | 89° |
| 2026-04-25 16:43 | 42.70816 | -43.99950 | 32604 ft | 562 kts | 89° |
| 2026-04-25 16:44 | 42.71774 | -43.89350 | 32608 ft | 562 kts | 89° |
| 2026-04-25 16:44 | 42.72718 | -43.78788 | 32612 ft | 562 kts | 89° |
| 2026-04-25 16:45 | 42.73648 | -43.68261 | 32620 ft | 559 kts | 89° |
| 2026-04-25 16:45 | 42.74572 | -43.57703 | 32628 ft | 561 kts | 88° |
| 2026-04-25 16:46 | 42.75484 | -43.47183 | 32621 ft | 559 kts | 89° |
| 2026-04-25 16:46 | 42.76079 | -43.40223 | 32619 ft | 559 kts | 88° |
| 2026-04-25 16:47 | 42.77276 | -43.26118 | 32609 ft | 559 kts | 89° |
| 2026-04-25 16:47 | 42.78151 | -43.15640 | 32624 ft | 558 kts | 89° |
| 2026-04-25 16:48 | 42.79019 | -43.05176 | 32621 ft | 558 kts | 89° |
| 2026-04-25 16:48 | 42.79884 | -42.94603 | 32626 ft | 557 kts | 89° |
| 2026-04-25 16:49 | 42.80727 | -42.84189 | 32630 ft | 556 kts | 89° |
| 2026-04-25 16:49 | 42.81569 | -42.73653 | 32624 ft | 555 kts | 90° |
| 2026-04-25 16:50 | 42.82394 | -42.63205 | 32625 ft | 557 kts | 89° |
| 2026-04-25 16:50 | 42.83218 | -42.52674 | 32630 ft | 555 kts | 90° |
| 2026-04-25 16:51 | 42.84019 | -42.42278 | 32649 ft | 554 kts | 89° |
| 2026-04-25 16:51 | 42.84684 | -42.33568 | 32652 ft | 554 kts | 90° |
| 2026-04-25 16:52 | 42.85604 | -42.21363 | 32638 ft | 553 kts | 90° |
| 2026-04-25 16:52 | 42.86383 | -42.10871 | 32641 ft | 554 kts | 90° |
| 2026-04-25 16:53 | 42.87532 | -41.95212 | 32639 ft | 552 kts | 90° |
| 2026-04-25 16:54 | 42.88280 | -41.84803 | 32650 ft | 554 kts | 90° |
| 2026-04-25 16:54 | 42.89030 | -41.74260 | 32659 ft | 554 kts | 90° |
| 2026-04-25 16:55 | 42.89762 | -41.63853 | 32656 ft | 552 kts | 90° |
| 2026-04-25 16:55 | 42.90489 | -41.53348 | 32663 ft | 555 kts | 90° |
| 2026-04-25 16:56 | 42.91202 | -41.42901 | 32661 ft | 555 kts | 90° |
| 2026-04-25 16:56 | 42.91911 | -41.32400 | 32656 ft | 556 kts | 90° |
| 2026-04-25 16:57 | 42.92609 | -41.21914 | 32649 ft | 555 kts | 91° |
| 2026-04-25 16:57 | 42.93300 | -41.11351 | 32673 ft | 557 kts | 91° |
| 2026-04-25 16:58 | 42.93983 | -41.00811 | 32676 ft | 554 kts | 91° |
| 2026-04-25 16:58 | 42.94650 | -40.90312 | 32666 ft | 557 kts | 91° |
| 2026-04-25 16:59 | 42.95308 | -40.79817 | 32667 ft | 556 kts | 91° |
| 2026-04-25 16:59 | 42.95962 | -40.69270 | 32663 ft | 555 kts | 91° |
| 2026-04-25 17:00 | 42.96600 | -40.58780 | 32662 ft | 556 kts | 91° |
| 2026-04-25 17:00 | 42.97233 | -40.48224 | 32662 ft | 557 kts | 91° |
| 2026-04-25 17:01 | 42.97858 | -40.37650 | 32651 ft | 557 kts | 91° |
| 2026-04-25 17:01 | 42.98470 | -40.27133 | 32642 ft | 556 kts | 92° |
| 2026-04-25 17:02 | 42.99072 | -40.16602 | 32665 ft | 556 kts | 92° |
| 2026-04-25 17:02 | 42.99667 | -40.06029 | 32671 ft | 556 kts | 92° |
| 2026-04-25 17:03 | 43.00187 | -39.95490 | 32658 ft | 554 kts | 93° |
| 2026-04-25 17:03 | 43.00642 | -39.85022 | 32668 ft | 554 kts | 93° |
| 2026-04-25 17:04 | 43.01088 | -39.74431 | 32678 ft | 555 kts | 93° |
| 2026-04-25 17:04 | 43.01520 | -39.63893 | 32684 ft | 555 kts | 93° |
| 2026-04-25 17:05 | 43.01940 | -39.53369 | 32676 ft | 555 kts | 92° |
| 2026-04-25 17:05 | 43.02554 | -39.37593 | 32683 ft | 556 kts | 93° |
| 2026-04-25 17:06 | 43.02951 | -39.27056 | 32671 ft | 552 kts | 94° |
| 2026-04-25 17:06 | 43.03337 | -39.16575 | 32676 ft | 553 kts | 94° |
| 2026-04-25 17:07 | 43.03715 | -39.06035 | 32671 ft | 554 kts | 93° |
| 2026-04-25 17:07 | 43.04083 | -38.95517 | 32700 ft | 553 kts | 94° |
| 2026-04-25 17:08 | 43.04440 | -38.84985 | 32695 ft | 553 kts | 93° |
| 2026-04-25 17:08 | 43.04788 | -38.74447 | 32698 ft | 554 kts | 93° |
| 2026-04-25 17:09 | 43.05129 | -38.63919 | 32707 ft | 552 kts | 93° |
| 2026-04-25 17:09 | 43.05456 | -38.53401 | 32718 ft | 553 kts | 93° |
| 2026-04-25 17:10 | 43.05776 | -38.42890 | 32725 ft | 553 kts | 92° |
| 2026-04-25 17:10 | 43.06085 | -38.32378 | 32718 ft | 553 kts | 93° |
| 2026-04-25 17:11 | 43.06385 | -38.21855 | 32725 ft | 551 kts | 93° |
| 2026-04-25 17:11 | 43.06675 | -38.11371 | 32737 ft | 551 kts | 93° |
| 2026-04-25 17:12 | 43.06952 | -38.00940 | 32746 ft | 550 kts | 92° |
| 2026-04-25 17:12 | 43.07224 | -37.90380 | 32757 ft | 552 kts | 92° |
| 2026-04-25 17:13 | 43.07398 | -37.83452 | 32739 ft | 550 kts | 92° |
| 2026-04-25 17:13 | 43.07735 | -37.69483 | 32765 ft | 551 kts | 92° |
| 2026-04-25 17:14 | 43.07975 | -37.59050 | 32763 ft | 548 kts | 92° |
| 2026-04-25 17:14 | 43.08207 | -37.48587 | 32769 ft | 547 kts | 92° |
| 2026-04-25 17:15 | 43.08426 | -37.38181 | 32779 ft | 549 kts | 92° |
| 2026-04-25 17:15 | 43.08641 | -37.27718 | 32772 ft | 546 kts | 94° |
| 2026-04-25 17:16 | 43.08839 | -37.17346 | 32787 ft | 545 kts | 93° |
| 2026-04-25 17:16 | 43.09033 | -37.06920 | 32801 ft | 548 kts | 92° |
| 2026-04-25 17:17 | 43.09216 | -36.96510 | 32802 ft | 546 kts | 93° |
| 2026-04-25 17:17 | 43.09390 | -36.86091 | 32811 ft | 546 kts | 93° |
| 2026-04-25 17:18 | 43.09553 | -36.75711 | 32810 ft | 547 kts | 93° |
| 2026-04-25 17:18 | 43.09708 | -36.65257 | 32814 ft | 547 kts | 92° |
| 2026-04-25 17:19 | 43.09853 | -36.54844 | 32817 ft | 546 kts | 92° |
| 2026-04-25 17:19 | 43.09987 | -36.44485 | 32839 ft | 546 kts | 92° |
| 2026-04-25 17:20 | 43.10113 | -36.34079 | 32842 ft | 543 kts | 92° |
| 2026-04-25 17:20 | 43.10231 | -36.23735 | 32833 ft | 543 kts | 92° |
| 2026-04-25 17:21 | 43.10337 | -36.13356 | 32842 ft | 545 kts | 92° |
| 2026-04-25 17:21 | 43.10435 | -36.03052 | 32847 ft | 543 kts | 92° |
| 2026-04-25 17:22 | 43.10509 | -35.94397 | 32862 ft | 542 kts | 92° |
| 2026-04-25 17:22 | 43.10601 | -35.82388 | 32867 ft | 540 kts | 92° |
| 2026-04-25 17:23 | 43.10670 | -35.72089 | 32871 ft | 541 kts | 92° |
| 2026-04-25 17:23 | 43.10731 | -35.61773 | 32869 ft | 541 kts | 92° |
| 2026-04-25 17:24 | 43.10783 | -35.51479 | 32882 ft | 538 kts | 92° |
| 2026-04-25 17:24 | 43.10823 | -35.41237 | 32893 ft | 539 kts | 92° |
| 2026-04-25 17:25 | 43.10855 | -35.30967 | 32890 ft | 538 kts | 93° |
| 2026-04-25 17:25 | 43.10878 | -35.20725 | 32898 ft | 536 kts | 92° |
| 2026-04-25 17:26 | 43.10892 | -35.10528 | 32906 ft | 538 kts | 92° |
| 2026-04-25 17:26 | 43.10896 | -35.00272 | 32915 ft | 536 kts | 92° |
| 2026-04-25 17:27 | 43.10893 | -34.90072 | 32922 ft | 535 kts | 92° |
| 2026-04-25 17:27 | 43.10885 | -34.83268 | 32925 ft | 536 kts | 92° |
| 2026-04-25 17:28 | 43.10856 | -34.69663 | 32930 ft | 536 kts | 92° |
| 2026-04-25 17:28 | 43.10824 | -34.59424 | 32941 ft | 535 kts | 92° |
| 2026-04-25 17:29 | 43.10785 | -34.49248 | 32933 ft | 535 kts | 92° |
| 2026-04-25 17:29 | 43.10735 | -34.39021 | 32946 ft | 536 kts | 92° |
| 2026-04-25 17:30 | 43.10677 | -34.28849 | 32922 ft | 535 kts | 93° |
| 2026-04-25 17:30 | 43.10608 | -34.18676 | 32938 ft | 534 kts | 93° |
| 2026-04-25 17:31 | 43.10532 | -34.08450 | 32942 ft | 535 kts | 93° |
| 2026-04-25 17:31 | 43.10446 | -33.98294 | 32965 ft | 534 kts | 93° |
| 2026-04-25 17:32 | 43.10350 | -33.88095 | 32977 ft | 534 kts | 92° |
| 2026-04-25 17:32 | 43.10247 | -33.77906 | 32977 ft | 533 kts | 93° |
| 2026-04-25 17:33 | 43.10135 | -33.67792 | 32977 ft | 533 kts | 92° |
| 2026-04-25 17:33 | 43.10015 | -33.57654 | 32990 ft | 531 kts | 92° |
| 2026-04-25 17:34 | 43.09884 | -33.47475 | 32989 ft | 531 kts | 92° |
| 2026-04-25 17:34 | 43.09744 | -33.37351 | 32985 ft | 533 kts | 92° |
| 2026-04-25 17:35 | 43.09596 | -33.27202 | 32993 ft | 532 kts | 93° |
| 2026-04-25 17:35 | 43.09440 | -33.17092 | 32986 ft | 529 kts | 93° |
| 2026-04-25 17:36 | 43.09274 | -33.07032 | 33001 ft | 529 kts | 93° |
| 2026-04-25 17:36 | 43.09100 | -32.96933 | 33000 ft | 530 kts | 92° |
| 2026-04-25 17:37 | 43.08918 | -32.86870 | 33008 ft | 528 kts | 93° |
| 2026-04-25 17:37 | 43.08726 | -32.76792 | 33009 ft | 528 kts | 92° |
| 2026-04-25 17:38 | 43.08560 | -32.68378 | 33002 ft | 529 kts | 93° |
| 2026-04-25 17:38 | 43.08318 | -32.56700 | 33005 ft | 527 kts | 93° |
| 2026-04-25 17:39 | 43.08100 | -32.46619 | 33009 ft | 528 kts | 92° |
| 2026-04-25 17:39 | 43.07874 | -32.36554 | 33014 ft | 526 kts | 92° |
| 2026-04-25 17:40 | 43.07640 | -32.26546 | 33010 ft | 524 kts | 93° |
| 2026-04-25 17:40 | 43.07397 | -32.16575 | 33015 ft | 525 kts | 93° |
| 2026-04-25 17:41 | 43.07148 | -32.06640 | 33015 ft | 525 kts | 93° |
| 2026-04-25 17:41 | 43.06887 | -31.96625 | 33028 ft | 526 kts | 93° |
| 2026-04-25 17:42 | 43.06618 | -31.86615 | 33029 ft | 523 kts | 93° |
| 2026-04-25 17:42 | 43.06342 | -31.76668 | 33033 ft | 523 kts | 93° |
| 2026-04-25 17:43 | 43.06056 | -31.66654 | 33049 ft | 524 kts | 93° |
| 2026-04-25 17:43 | 43.05762 | -31.56703 | 33057 ft | 525 kts | 93° |
| 2026-04-25 17:44 | 43.05460 | -31.46772 | 33059 ft | 522 kts | 93° |
| 2026-04-25 17:44 | 43.05149 | -31.36794 | 33066 ft | 523 kts | 92° |
| 2026-04-25 17:45 | 43.04937 | -31.30152 | 33057 ft | 524 kts | 93° |
| 2026-04-25 17:45 | 43.04501 | -31.16890 | 33065 ft | 522 kts | 93° |
| 2026-04-25 17:46 | 43.04165 | -31.06950 | 33068 ft | 523 kts | 93° |
| 2026-04-25 17:46 | 43.03819 | -30.96996 | 33068 ft | 520 kts | 93° |
| 2026-04-25 17:47 | 43.03467 | -30.87091 | 33074 ft | 521 kts | 93° |
| 2026-04-25 17:47 | 43.03107 | -30.77202 | 33073 ft | 519 kts | 93° |
| 2026-04-25 17:48 | 43.02550 | -30.62375 | 33080 ft | 520 kts | 93° |
| 2026-04-25 17:49 | 43.02168 | -30.52467 | 33078 ft | 520 kts | 93° |
| 2026-04-25 17:49 | 43.01780 | -30.42655 | 33087 ft | 519 kts | 93° |
| 2026-04-25 17:50 | 43.01381 | -30.32772 | 33085 ft | 519 kts | 93° |
| 2026-04-25 17:50 | 43.00975 | -30.22905 | 33089 ft | 519 kts | 93° |
| 2026-04-25 17:51 | 43.00562 | -30.13069 | 33082 ft | 518 kts | 93° |
| 2026-04-25 17:51 | 43.00137 | -30.03152 | 33087 ft | 518 kts | 94° |
| 2026-04-25 17:52 | 43.00198 | -29.93384 | 33108 ft | 516 kts | 84° |
| 2026-04-25 17:52 | 43.00685 | -29.83524 | 33099 ft | 516 kts | 85° |
| 2026-04-25 17:53 | 43.01110 | -29.73782 | 33100 ft | 514 kts | 85° |
| 2026-04-25 17:53 | 43.01512 | -29.64025 | 33268 ft | 513 kts | 85° |
| 2026-04-25 17:53 | 43.01710 | -29.59138 | 33391 ft | 513 kts | 86° |
| 2026-04-25 17:54 | 43.01906 | -29.54264 | 33515 ft | 514 kts | 86° |
| 2026-04-25 17:54 | 43.02098 | -29.49366 | 33637 ft | 514 kts | 86° |
| 2026-04-25 17:54 | 43.02288 | -29.44487 | 33752 ft | 514 kts | 86° |
| 2026-04-25 17:54 | 43.02479 | -29.39549 | 33875 ft | 514 kts | 85° |
| 2026-04-25 17:55 | 43.02664 | -29.34713 | 33997 ft | 515 kts | 86° |
| 2026-04-25 17:55 | 43.02848 | -29.29806 | 34105 ft | 515 kts | 86° |
| 2026-04-25 17:55 | 43.03031 | -29.24904 | 34208 ft | 514 kts | 86° |
| 2026-04-25 17:55 | 43.03211 | -29.20007 | 34319 ft | 514 kts | 86° |
| 2026-04-25 17:56 | 43.03391 | -29.15081 | 34431 ft | 513 kts | 86° |
| 2026-04-25 17:56 | 43.03564 | -29.10266 | 34537 ft | 513 kts | 86° |
| 2026-04-25 17:56 | 43.03738 | -29.05379 | 34655 ft | 512 kts | 86° |
| 2026-04-25 17:56 | 43.03908 | -29.00519 | 34766 ft | 511 kts | 86° |
| 2026-04-25 17:57 | 43.04079 | -28.95611 | 34882 ft | 511 kts | 86° |
| 2026-04-25 17:57 | 43.04409 | -28.85901 | 35074 ft | 510 kts | 86° |
| 2026-04-25 17:58 | 43.04732 | -28.76211 | 35117 ft | 512 kts | 86° |
| 2026-04-25 17:58 | 43.05047 | -28.66495 | 35118 ft | 509 kts | 86° |
| 2026-04-25 17:59 | 43.05351 | -28.56842 | 35121 ft | 510 kts | 86° |
| 2026-04-25 17:59 | 43.05649 | -28.47099 | 35123 ft | 509 kts | 86° |
| 2026-04-25 18:00 | 43.05937 | -28.37445 | 35127 ft | 508 kts | 86° |
| 2026-04-25 18:00 | 43.06218 | -28.27787 | 35121 ft | 509 kts | 87° |
| 2026-04-25 18:01 | 43.06490 | -28.18118 | 35123 ft | 508 kts | 87° |
| 2026-04-25 18:01 | 43.06756 | -28.08382 | 35128 ft | 509 kts | 87° |
| 2026-04-25 18:02 | 43.07010 | -27.98749 | 35128 ft | 509 kts | 87° |
| 2026-04-25 18:02 | 43.07259 | -27.89015 | 35130 ft | 508 kts | 87° |
| 2026-04-25 18:03 | 43.07498 | -27.79380 | 35129 ft | 508 kts | 87° |
| 2026-04-25 18:03 | 43.07730 | -27.69664 | 35132 ft | 509 kts | 87° |
| 2026-04-25 18:04 | 43.07953 | -27.60006 | 35134 ft | 509 kts | 86° |
| 2026-04-25 18:04 | 43.08168 | -27.50337 | 35135 ft | 508 kts | 86° |
| 2026-04-25 18:05 | 43.08375 | -27.40620 | 35137 ft | 508 kts | 86° |
| 2026-04-25 18:05 | 43.08575 | -27.30902 | 35129 ft | 508 kts | 87° |
| 2026-04-25 18:06 | 43.08765 | -27.21241 | 35132 ft | 508 kts | 87° |
| 2026-04-25 18:06 | 43.08949 | -27.11534 | 35129 ft | 507 kts | 86° |
| 2026-04-25 18:07 | 43.09122 | -27.01929 | 35122 ft | 507 kts | 86° |
| 2026-04-25 18:07 | 43.09288 | -26.92211 | 35112 ft | 506 kts | 86° |
| 2026-04-25 18:08 | 43.09446 | -26.82589 | 35113 ft | 505 kts | 86° |
| 2026-04-25 18:08 | 43.09594 | -26.73015 | 35114 ft | 505 kts | 86° |
| 2026-04-25 18:09 | 43.09736 | -26.63355 | 35112 ft | 505 kts | 86° |
| 2026-04-25 18:09 | 43.09868 | -26.53721 | 35114 ft | 503 kts | 86° |
| 2026-04-25 18:10 | 43.09992 | -26.44156 | 35116 ft | 504 kts | 86° |
| 2026-04-25 18:10 | 43.10110 | -26.34514 | 35118 ft | 505 kts | 87° |
| 2026-04-25 18:11 | 43.10218 | -26.24922 | 35111 ft | 503 kts | 87° |
| 2026-04-25 18:11 | 43.10318 | -26.15325 | 35111 ft | 501 kts | 87° |
| 2026-04-25 18:12 | 43.10410 | -26.05843 | 35114 ft | 501 kts | 87° |
| 2026-04-25 18:12 | 43.10494 | -25.96270 | 35116 ft | 500 kts | 88° |
| 2026-04-25 18:13 | 43.10569 | -25.86689 | 35113 ft | 500 kts | 87° |
| 2026-04-25 18:13 | 43.10637 | -25.77217 | 35112 ft | 500 kts | 87° |
| 2026-04-25 18:14 | 43.10725 | -25.62854 | 35115 ft | 499 kts | 87° |
| 2026-04-25 18:14 | 43.10773 | -25.53373 | 35115 ft | 501 kts | 87° |
| 2026-04-25 18:15 | 43.10814 | -25.43802 | 35115 ft | 501 kts | 87° |
| 2026-04-25 18:15 | 43.10846 | -25.34283 | 35117 ft | 500 kts | 88° |
| 2026-04-25 18:16 | 43.10870 | -25.24720 | 35110 ft | 500 kts | 88° |
| 2026-04-25 18:17 | 43.10892 | -25.10441 | 35111 ft | 499 kts | 88° |
| 2026-04-25 18:17 | 43.10897 | -25.00924 | 35112 ft | 500 kts | 88° |
| 2026-04-25 18:18 | 43.10894 | -24.91409 | 35112 ft | 499 kts | 88° |
| 2026-04-25 18:18 | 43.10883 | -24.81895 | 35110 ft | 500 kts | 88° |
| 2026-04-25 18:19 | 43.10863 | -24.72341 | 35103 ft | 500 kts | 88° |
| 2026-04-25 18:19 | 43.10836 | -24.62798 | 35102 ft | 498 kts | 88° |
| 2026-04-25 18:20 | 43.10802 | -24.53347 | 35106 ft | 499 kts | 88° |
| 2026-04-25 18:20 | 43.10759 | -24.43777 | 35105 ft | 498 kts | 88° |
| 2026-04-25 18:21 | 43.10709 | -24.34294 | 35094 ft | 499 kts | 89° |
| 2026-04-25 18:21 | 43.10651 | -24.24813 | 35091 ft | 500 kts | 89° |
| 2026-04-25 18:22 | 43.10584 | -24.15282 | 35088 ft | 500 kts | 89° |
| 2026-04-25 18:22 | 43.10510 | -24.05739 | 35092 ft | 499 kts | 89° |
| 2026-04-25 18:23 | 43.10427 | -23.96195 | 35088 ft | 499 kts | 89° |
| 2026-04-25 18:23 | 43.10338 | -23.86727 | 35095 ft | 498 kts | 89° |
| 2026-04-25 18:24 | 43.10241 | -23.77231 | 35094 ft | 497 kts | 89° |
| 2026-04-25 18:24 | 43.10135 | -23.67733 | 35094 ft | 498 kts | 89° |
| 2026-04-25 18:25 | 43.10022 | -23.58255 | 35095 ft | 499 kts | 89° |
| 2026-04-25 18:25 | 43.09901 | -23.48742 | 35094 ft | 498 kts | 89° |
| 2026-04-25 18:26 | 43.09772 | -23.39277 | 35094 ft | 498 kts | 89° |
| 2026-04-25 18:26 | 43.09636 | -23.29770 | 35090 ft | 497 kts | 90° |
| 2026-04-25 18:27 | 43.09491 | -23.20353 | 35090 ft | 496 kts | 90° |
| 2026-04-25 18:27 | 43.09339 | -23.10867 | 35090 ft | 497 kts | 90° |
| 2026-04-25 18:28 | 43.09180 | -23.01400 | 35089 ft | 496 kts | 90° |
| 2026-04-25 18:28 | 43.09011 | -22.91923 | 35087 ft | 498 kts | 90° |
| 2026-04-25 18:29 | 43.08745 | -22.77730 | 35092 ft | 498 kts | 90° |
| 2026-04-25 18:30 | 43.08363 | -22.58819 | 35087 ft | 497 kts | 90° |
| 2026-04-25 18:30 | 43.08160 | -22.49325 | 35084 ft | 499 kts | 91° |
| 2026-04-25 18:31 | 43.07948 | -22.39796 | 35087 ft | 499 kts | 91° |
| 2026-04-25 18:31 | 43.07727 | -22.30271 | 35080 ft | 499 kts | 91° |
| 2026-04-25 18:32 | 43.07501 | -22.20795 | 35082 ft | 501 kts | 91° |
| 2026-04-25 18:32 | 43.07265 | -22.11258 | 35087 ft | 501 kts | 91° |
| 2026-04-25 18:33 | 43.07021 | -22.01689 | 35087 ft | 501 kts | 91° |
| 2026-04-25 18:33 | 43.06769 | -21.92180 | 35087 ft | 503 kts | 91° |
| 2026-04-25 18:34 | 43.06506 | -21.82533 | 35083 ft | 505 kts | 91° |
| 2026-04-25 18:34 | 43.06237 | -21.72930 | 35088 ft | 508 kts | 92° |
| 2026-04-25 18:35 | 43.05957 | -21.63258 | 35082 ft | 506 kts | 92° |
| 2026-04-25 18:35 | 43.05670 | -21.53615 | 35097 ft | 508 kts | 92° |
| 2026-04-25 18:36 | 43.05374 | -21.43917 | 35094 ft | 509 kts | 92° |
| 2026-04-25 18:36 | 43.05070 | -21.34268 | 35087 ft | 509 kts | 94° |
| 2026-04-25 18:37 | 43.04757 | -21.24585 | 35084 ft | 509 kts | 94° |
| 2026-04-25 18:37 | 43.04435 | -21.14869 | 35077 ft | 511 kts | 94° |
| 2026-04-25 18:38 | 43.04105 | -21.05147 | 35085 ft | 511 kts | 95° |
| 2026-04-25 18:38 | 43.03764 | -20.95416 | 35085 ft | 511 kts | 95° |
| 2026-04-25 18:39 | 43.03417 | -20.85677 | 35084 ft | 512 kts | 95° |
| 2026-04-25 18:39 | 43.03061 | -20.75944 | 35082 ft | 514 kts | 95° |
| 2026-04-25 18:40 | 43.02695 | -20.66149 | 35090 ft | 515 kts | 95° |
| 2026-04-25 18:40 | 43.02320 | -20.56393 | 35087 ft | 515 kts | 95° |
| 2026-04-25 18:41 | 43.01936 | -20.46547 | 35085 ft | 516 kts | 95° |
| 2026-04-25 18:41 | 43.01544 | -20.36758 | 35092 ft | 516 kts | 95° |
| 2026-04-25 18:42 | 43.01279 | -20.30252 | 35080 ft | 517 kts | 96° |
| 2026-04-25 18:42 | 43.00732 | -20.17074 | 35082 ft | 519 kts | 96° |
| 2026-04-25 18:43 | 43.00311 | -20.07208 | 35082 ft | 521 kts | 96° |
| 2026-04-25 18:43 | 42.99997 | -19.97283 | 35083 ft | 525 kts | 90° |
| 2026-04-25 18:44 | 43.01093 | -19.87351 | 35095 ft | 529 kts | 82° |
| 2026-04-25 18:44 | 43.02243 | -19.77440 | 35094 ft | 528 kts | 83° |
| 2026-04-25 18:45 | 43.03276 | -19.67526 | 35097 ft | 528 kts | 84° |
| 2026-04-25 18:45 | 43.04284 | -19.57484 | 35099 ft | 529 kts | 84° |
| 2026-04-25 18:46 | 43.05267 | -19.47522 | 35101 ft | 528 kts | 84° |
| 2026-04-25 18:46 | 43.06237 | -19.37574 | 35109 ft | 527 kts | 84° |
| 2026-04-25 18:47 | 43.07199 | -19.27616 | 35097 ft | 529 kts | 84° |
| 2026-04-25 18:47 | 43.08157 | -19.17621 | 35104 ft | 528 kts | 85° |
| 2026-04-25 18:48 | 43.09110 | -19.07574 | 35102 ft | 530 kts | 85° |
| 2026-04-25 18:48 | 43.10050 | -18.97555 | 35102 ft | 529 kts | 84° |
| 2026-04-25 18:49 | 43.10981 | -18.87545 | 35109 ft | 529 kts | 84° |
| 2026-04-25 18:49 | 43.11900 | -18.77572 | 35115 ft | 528 kts | 85° |
| 2026-04-25 18:50 | 43.12813 | -18.67571 | 35115 ft | 528 kts | 85° |
| 2026-04-25 18:50 | 43.13717 | -18.57550 | 35130 ft | 528 kts | 85° |
| 2026-04-25 18:51 | 43.14463 | -18.49218 | 35119 ft | 526 kts | 85° |
| 2026-04-25 18:51 | 43.15491 | -18.37621 | 35135 ft | 526 kts | 85° |
| 2026-04-25 18:52 | 43.16363 | -18.27671 | 35126 ft | 524 kts | 86° |
| 2026-04-25 18:52 | 43.17224 | -18.17734 | 35134 ft | 527 kts | 86° |
| 2026-04-25 18:53 | 43.18081 | -18.07759 | 35134 ft | 524 kts | 86° |
| 2026-04-25 18:53 | 43.18926 | -17.97803 | 35133 ft | 523 kts | 86° |
| 2026-04-25 18:54 | 43.20169 | -17.82977 | 35145 ft | 522 kts | 86° |
| 2026-04-25 18:55 | 43.20993 | -17.73022 | 35145 ft | 522 kts | 86° |
| 2026-04-25 18:55 | 43.21802 | -17.63145 | 35149 ft | 522 kts | 86° |
| 2026-04-25 18:56 | 43.22604 | -17.53237 | 35151 ft | 522 kts | 86° |
| 2026-04-25 18:56 | 43.23397 | -17.43330 | 35162 ft | 521 kts | 86° |
| 2026-04-25 18:57 | 43.24182 | -17.33435 | 35158 ft | 519 kts | 87° |
| 2026-04-25 18:57 | 43.24952 | -17.23599 | 35157 ft | 519 kts | 87° |
| 2026-04-25 18:58 | 43.25716 | -17.13736 | 35163 ft | 518 kts | 87° |
| 2026-04-25 18:58 | 43.26843 | -16.98975 | 35161 ft | 517 kts | 87° |
| 2026-04-25 18:59 | 43.28317 | -16.79271 | 35160 ft | 517 kts | 87° |
| 2026-04-25 19:00 | 43.29396 | -16.64553 | 35159 ft | 516 kts | 87° |
| 2026-04-25 19:01 | 43.30458 | -16.49801 | 35161 ft | 516 kts | 87° |
| 2026-04-25 19:01 | 43.31151 | -16.40014 | 35168 ft | 516 kts | 86° |
| 2026-04-25 19:02 | 43.32178 | -16.25306 | 35164 ft | 514 kts | 87° |
| 2026-04-25 19:03 | 43.32964 | -16.13845 | 35168 ft | 514 kts | 87° |
| 2026-04-25 19:03 | 43.33845 | -16.00821 | 35170 ft | 513 kts | 87° |
| 2026-04-25 19:04 | 43.34818 | -15.86142 | 35173 ft | 513 kts | 87° |
| 2026-04-25 19:05 | 43.36087 | -15.66582 | 35177 ft | 511 kts | 87° |
| 2026-04-25 19:06 | 43.36704 | -15.56846 | 35179 ft | 511 kts | 87° |
| 2026-04-25 19:06 | 43.37619 | -15.42208 | 35192 ft | 511 kts | 87° |
| 2026-04-25 19:07 | 43.38510 | -15.27633 | 35187 ft | 509 kts | 88° |
| 2026-04-25 19:08 | 43.39383 | -15.13050 | 35186 ft | 511 kts | 88° |
| 2026-04-25 19:09 | 43.40428 | -14.95167 | 35198 ft | 509 kts | 88° |
| 2026-04-25 19:10 | 43.41345 | -14.79056 | 35197 ft | 508 kts | 88° |
| 2026-04-25 19:10 | 43.41885 | -14.69369 | 35205 ft | 507 kts | 88° |
| 2026-04-25 19:11 | 43.42419 | -14.59659 | 35202 ft | 506 kts | 88° |
| 2026-04-25 19:11 | 43.42941 | -14.50009 | 35205 ft | 506 kts | 88° |
| 2026-04-25 19:12 | 43.43453 | -14.40386 | 35204 ft | 505 kts | 88° |
| 2026-04-25 19:12 | 43.43959 | -14.30733 | 35204 ft | 505 kts | 88° |
| 2026-04-25 19:13 | 43.44457 | -14.21062 | 35209 ft | 506 kts | 88° |
| 2026-04-25 19:13 | 43.44947 | -14.11386 | 35209 ft | 505 kts | 88° |
| 2026-04-25 19:14 | 43.45428 | -14.01745 | 35212 ft | 502 kts | 88° |
| 2026-04-25 19:14 | 43.45899 | -13.92143 | 35215 ft | 503 kts | 88° |
| 2026-04-25 19:15 | 43.46361 | -13.82550 | 35210 ft | 501 kts | 88° |
| 2026-04-25 19:15 | 43.46811 | -13.73016 | 35212 ft | 500 kts | 88° |
| 2026-04-25 19:16 | 43.47256 | -13.63447 | 35209 ft | 501 kts | 88° |
| 2026-04-25 19:16 | 43.47694 | -13.53837 | 35203 ft | 500 kts | 88° |
| 2026-04-25 19:17 | 43.48123 | -13.44272 | 35201 ft | 499 kts | 88° |
| 2026-04-25 19:17 | 43.48542 | -13.34740 | 35197 ft | 499 kts | 88° |
| 2026-04-25 19:18 | 43.48953 | -13.25201 | 35193 ft | 500 kts | 88° |
| 2026-04-25 19:18 | 43.49359 | -13.15591 | 35195 ft | 500 kts | 88° |
| 2026-04-25 19:19 | 43.49755 | -13.06044 | 35194 ft | 497 kts | 88° |
| 2026-04-25 19:19 | 43.49839 | -12.96539 | 35199 ft | 497 kts | 93° |
| 2026-04-25 19:20 | 43.49634 | -12.87029 | 35194 ft | 498 kts | 93° |
| 2026-04-25 19:20 | 43.49384 | -12.77486 | 35193 ft | 496 kts | 94° |
| 2026-04-25 19:21 | 43.49118 | -12.68003 | 35193 ft | 497 kts | 94° |
| 2026-04-25 19:21 | 43.48699 | -12.53777 | 35193 ft | 494 kts | 94° |
| 2026-04-25 19:22 | 43.48409 | -12.44275 | 35195 ft | 495 kts | 94° |
| 2026-04-25 19:23 | 43.47960 | -12.30058 | 35191 ft | 496 kts | 94° |
| 2026-04-25 19:23 | 43.47493 | -12.15833 | 35231 ft | 492 kts | 94° |
| 2026-04-25 19:24 | 43.47173 | -12.06393 | 35198 ft | 493 kts | 94° |
| 2026-04-25 19:25 | 43.46509 | -11.87487 | 35194 ft | 494 kts | 94° |
| 2026-04-25 19:25 | 43.46166 | -11.78023 | 35193 ft | 493 kts | 94° |
| 2026-04-25 19:26 | 43.45814 | -11.68583 | 35195 ft | 494 kts | 94° |
| 2026-04-25 19:26 | 43.45455 | -11.59152 | 35192 ft | 494 kts | 94° |
| 2026-04-25 19:27 | 43.45151 | -11.51290 | 35085 ft | 493 kts | 94° |
| 2026-04-25 19:27 | 43.44902 | -11.44976 | 35199 ft | 493 kts | 94° |
| 2026-04-25 19:27 | 43.44714 | -11.40279 | 35187 ft | 495 kts | 94° |
| 2026-04-25 19:28 | 43.44332 | -11.30833 | 35184 ft | 494 kts | 95° |
| 2026-04-25 19:28 | 43.43943 | -11.21406 | 35183 ft | 493 kts | 95° |
| 2026-04-25 19:29 | 43.43545 | -11.11969 | 35186 ft | 494 kts | 95° |
| 2026-04-25 19:29 | 43.43138 | -11.02504 | 35183 ft | 492 kts | 95° |
| 2026-04-25 19:30 | 43.42728 | -10.93134 | 35177 ft | 492 kts | 95° |
| 2026-04-25 19:30 | 43.42306 | -10.83698 | 35180 ft | 493 kts | 95° |
| 2026-04-25 19:31 | 43.41878 | -10.74287 | 35177 ft | 492 kts | 95° |
| 2026-04-25 19:31 | 43.41445 | -10.64909 | 35177 ft | 491 kts | 95° |
| 2026-04-25 19:32 | 43.41002 | -10.55516 | 35176 ft | 492 kts | 95° |
| 2026-04-25 19:32 | 43.40627 | -10.47698 | 35174 ft | 492 kts | 95° |
| 2026-04-25 19:33 | 43.40093 | -10.36717 | 35173 ft | 493 kts | 95° |
| 2026-04-25 19:33 | 43.39626 | -10.27299 | 35171 ft | 491 kts | 96° |
| 2026-04-25 19:34 | 43.39156 | -10.17972 | 35169 ft | 491 kts | 96° |
| 2026-04-25 19:34 | 43.38674 | -10.08579 | 35165 ft | 492 kts | 96° |
| 2026-04-25 19:35 | 43.38188 | -9.99223 | 35163 ft | 491 kts | 96° |
| 2026-04-25 19:35 | 43.37693 | -9.89872 | 35164 ft | 490 kts | 96° |
| 2026-04-25 19:36 | 43.37189 | -9.80487 | 35164 ft | 490 kts | 95° |
| 2026-04-25 19:36 | 43.36678 | -9.71127 | 35158 ft | 491 kts | 95° |
| 2026-04-25 19:37 | 43.36161 | -9.61772 | 35160 ft | 491 kts | 95° |
| 2026-04-25 19:37 | 43.35634 | -9.52407 | 35161 ft | 492 kts | 95° |
| 2026-04-25 19:38 | 43.35099 | -9.43006 | 35157 ft | 492 kts | 95° |
| 2026-04-25 19:38 | 43.34558 | -9.33660 | 35153 ft | 492 kts | 96° |
| 2026-04-25 19:39 | 43.34007 | -9.24268 | 35148 ft | 491 kts | 96° |
| 2026-04-25 19:39 | 43.33452 | -9.14942 | 35144 ft | 491 kts | 96° |
| 2026-04-25 19:40 | 43.32888 | -9.05581 | 35146 ft | 492 kts | 95° |
| 2026-04-25 19:40 | 43.32319 | -8.96284 | 35145 ft | 491 kts | 95° |
| 2026-04-25 19:41 | 43.31736 | -8.86873 | 35142 ft | 493 kts | 95° |
| 2026-04-25 19:41 | 43.31347 | -8.80658 | 35143 ft | 494 kts | 95° |
| 2026-04-25 19:42 | 43.30552 | -8.68140 | 35137 ft | 492 kts | 95° |
| 2026-04-25 19:42 | 43.29951 | -8.58817 | 35142 ft | 494 kts | 95° |
| 2026-04-25 19:43 | 43.29338 | -8.49433 | 35140 ft | 493 kts | 95° |
| 2026-04-25 19:43 | 43.28719 | -8.40058 | 35140 ft | 492 kts | 94° |
| 2026-04-25 19:44 | 43.28092 | -8.30696 | 35132 ft | 494 kts | 95° |
| 2026-04-25 19:44 | 43.27457 | -8.21337 | 35130 ft | 493 kts | 95° |
| 2026-04-25 19:45 | 43.26814 | -8.11949 | 35131 ft | 493 kts | 95° |
| 2026-04-25 19:45 | 43.26167 | -8.02630 | 35136 ft | 491 kts | 95° |
| 2026-04-25 19:46 | 43.25510 | -7.93285 | 35133 ft | 491 kts | 95° |
| 2026-04-25 19:46 | 43.24852 | -7.84022 | 35135 ft | 490 kts | 95° |
| 2026-04-25 19:47 | 43.24183 | -7.74726 | 35133 ft | 491 kts | 94° |
| 2026-04-25 19:47 | 43.23508 | -7.65454 | 35130 ft | 489 kts | 94° |
| 2026-04-25 19:48 | 43.22829 | -7.56214 | 35129 ft | 489 kts | 94° |
| 2026-04-25 19:48 | 43.22141 | -7.46955 | 35133 ft | 489 kts | 94° |
| 2026-04-25 19:49 | 43.21676 | -7.40764 | 35136 ft | 489 kts | 94° |
| 2026-04-25 19:49 | 43.20423 | -7.28527 | 35144 ft | 488 kts | 98° |
| 2026-04-25 19:50 | 43.18783 | -7.14769 | 35148 ft | 487 kts | 98° |
| 2026-04-25 19:51 | 43.17679 | -7.05643 | 35138 ft | 487 kts | 98° |
| 2026-04-25 19:51 | 43.16569 | -6.96541 | 35142 ft | 486 kts | 98° |
| 2026-04-25 19:52 | 43.15456 | -6.87476 | 35153 ft | 486 kts | 98° |
| 2026-04-25 19:52 | 43.14320 | -6.78284 | 35163 ft | 484 kts | 98° |
| 2026-04-25 19:53 | 43.13202 | -6.69296 | 35181 ft | 483 kts | 98° |
| 2026-04-25 19:53 | 43.12061 | -6.60189 | 35180 ft | 484 kts | 97° |
| 2026-04-25 19:54 | 43.10918 | -6.51121 | 35182 ft | 485 kts | 97° |
| 2026-04-25 19:54 | 43.09769 | -6.42080 | 35194 ft | 484 kts | 97° |
| 2026-04-25 19:55 | 43.08611 | -6.33015 | 35206 ft | 484 kts | 98° |
| 2026-04-25 19:55 | 43.07446 | -6.23957 | 35208 ft | 484 kts | 98° |
| 2026-04-25 19:56 | 43.06273 | -6.14895 | 35210 ft | 484 kts | 98° |
| 2026-04-25 19:56 | 43.05097 | -6.05873 | 35204 ft | 483 kts | 98° |
| 2026-04-25 19:57 | 43.03919 | -5.96883 | 35208 ft | 482 kts | 98° |
| 2026-04-25 19:57 | 43.02732 | -5.87890 | 35217 ft | 482 kts | 98° |
| 2026-04-25 19:58 | 43.01531 | -5.78848 | 35223 ft | 482 kts | 98° |
| 2026-04-25 19:58 | 43.00330 | -5.69861 | 35231 ft | 483 kts | 98° |
| 2026-04-25 19:59 | 42.99121 | -5.60875 | 35230 ft | 482 kts | 98° |
| 2026-04-25 19:59 | 42.97911 | -5.51925 | 35238 ft | 482 kts | 98° |
| 2026-04-25 20:00 | 42.96685 | -5.42918 | 35231 ft | 483 kts | 98° |
| 2026-04-25 20:00 | 42.95449 | -5.33896 | 35223 ft | 482 kts | 99° |
| 2026-04-25 20:01 | 42.93586 | -5.20406 | 35212 ft | 481 kts | 99° |
| 2026-04-25 20:01 | 42.92342 | -5.11459 | 35217 ft | 480 kts | 99° |
| 2026-04-25 20:02 | 42.91092 | -5.02523 | 35207 ft | 480 kts | 99° |
| 2026-04-25 20:02 | 42.89829 | -4.93551 | 35205 ft | 482 kts | 99° |
| 2026-04-25 20:03 | 42.88564 | -4.84608 | 35216 ft | 483 kts | 99° |
| 2026-04-25 20:03 | 42.87274 | -4.75554 | 35222 ft | 485 kts | 100° |
| 2026-04-25 20:04 | 42.85984 | -4.66552 | 35236 ft | 484 kts | 100° |
| 2026-04-25 20:04 | 42.84686 | -4.57545 | 35222 ft | 486 kts | 100° |
| 2026-04-25 20:05 | 42.83381 | -4.48547 | 35207 ft | 487 kts | 100° |
| 2026-04-25 20:05 | 42.82061 | -4.39489 | 35200 ft | 487 kts | 100° |
| 2026-04-25 20:06 | 42.80725 | -4.30387 | 35199 ft | 488 kts | 101° |
| 2026-04-25 20:06 | 42.79391 | -4.21340 | 35186 ft | 487 kts | 101° |
| 2026-04-25 20:07 | 42.78056 | -4.12341 | 35189 ft | 486 kts | 101° |
| 2026-04-25 20:07 | 42.76714 | -4.03347 | 35186 ft | 486 kts | 102° |
| 2026-04-25 20:08 | 42.75360 | -3.94322 | 35189 ft | 487 kts | 102° |
| 2026-04-25 20:08 | 42.73993 | -3.85271 | 35190 ft | 488 kts | 102° |
| 2026-04-25 20:09 | 42.72628 | -3.76273 | 35197 ft | 488 kts | 102° |
| 2026-04-25 20:09 | 42.71241 | -3.67185 | 35190 ft | 492 kts | 102° |
| 2026-04-25 20:10 | 42.69846 | -3.58100 | 35187 ft | 492 kts | 102° |
| 2026-04-25 20:10 | 42.68446 | -3.49024 | 35197 ft | 491 kts | 102° |
| 2026-04-25 20:11 | 42.67030 | -3.39900 | 35193 ft | 492 kts | 103° |
| 2026-04-25 20:11 | 42.65610 | -3.30801 | 35187 ft | 492 kts | 103° |
| 2026-04-25 20:12 | 42.64183 | -3.21707 | 35190 ft | 494 kts | 103° |
| 2026-04-25 20:12 | 42.63226 | -3.15641 | 35191 ft | 495 kts | 103° |
| 2026-04-25 20:13 | 42.61297 | -3.03472 | 35189 ft | 495 kts | 103° |
| 2026-04-25 20:13 | 42.59831 | -2.94276 | 35189 ft | 496 kts | 103° |
| 2026-04-25 20:14 | 42.58371 | -2.85177 | 35182 ft | 494 kts | 103° |
| 2026-04-25 20:14 | 42.56905 | -2.76086 | 35184 ft | 496 kts | 104° |
| 2026-04-25 20:15 | 42.55430 | -2.66987 | 35085 ft | 497 kts | 104° |
| 2026-04-25 20:15 | 42.54695 | -2.62474 | 35459 ft | 483 kts | 103° |
| 2026-04-25 20:15 | 42.53976 | -2.58074 | 35797 ft | 479 kts | 103° |
| 2026-04-25 20:16 | 42.53252 | -2.53649 | 35933 ft | 480 kts | 103° |
| 2026-04-25 20:16 | 42.52533 | -2.49262 | 36032 ft | 481 kts | 103° |
| 2026-04-25 20:16 | 42.51798 | -2.44796 | 36135 ft | 482 kts | 103° |
| 2026-04-25 20:16 | 42.51065 | -2.40351 | 36238 ft | 483 kts | 103° |
| 2026-04-25 20:17 | 42.49599 | -2.31495 | 36435 ft | 485 kts | 103° |
| 2026-04-25 20:17 | 42.48121 | -2.22614 | 36999 ft | 485 kts | 103° |
| 2026-04-25 20:18 | 42.47085 | -2.16409 | 37150 ft | 480 kts | 103° |
| 2026-04-25 20:18 | 42.46513 | -2.12999 | 37163 ft | 481 kts | 103° |
| 2026-04-25 20:19 | 42.45287 | -2.05701 | 37161 ft | 485 kts | 103° |
| 2026-04-25 20:19 | 42.44820 | -2.02934 | 37156 ft | 486 kts | 103° |
| 2026-04-25 20:20 | 42.43313 | -1.94020 | 37156 ft | 487 kts | 103° |
| 2026-04-25 20:20 | 42.42042 | -1.85065 | 37160 ft | 484 kts | 99° |
| 2026-04-25 20:21 | 42.40934 | -1.76038 | 37155 ft | 485 kts | 99° |
| 2026-04-25 20:21 | 42.39819 | -1.67080 | 37144 ft | 485 kts | 99° |
| 2026-04-25 20:22 | 42.39069 | -1.61098 | 37146 ft | 485 kts | 99° |
| 2026-04-25 20:22 | 42.37552 | -1.49084 | 37148 ft | 487 kts | 99° |
| 2026-04-25 20:23 | 42.36406 | -1.40082 | 37152 ft | 486 kts | 99° |
| 2026-04-25 20:23 | 42.35250 | -1.31058 | 37150 ft | 486 kts | 100° |
| 2026-04-25 20:24 | 42.34091 | -1.22075 | 37135 ft | 485 kts | 100° |
| 2026-04-25 20:24 | 42.32924 | -1.13078 | 37134 ft | 485 kts | 100° |
| 2026-04-25 20:25 | 42.31762 | -1.04180 | 37081 ft | 483 kts | 100° |
| 2026-04-25 20:25 | 42.30586 | -0.95235 | 37120 ft | 486 kts | 100° |
| 2026-04-25 20:26 | 42.29395 | -0.86235 | 37130 ft | 488 kts | 100° |
| 2026-04-25 20:26 | 42.28198 | -0.77235 | 37128 ft | 485 kts | 100° |
| 2026-04-25 20:27 | 42.26998 | -0.68284 | 37131 ft | 487 kts | 100° |
| 2026-04-25 20:27 | 42.25795 | -0.59353 | 37304 ft | 484 kts | 100° |
| 2026-04-25 20:28 | 42.25189 | -0.54875 | 37440 ft | 483 kts | 100° |
| 2026-04-25 20:28 | 42.24580 | -0.50393 | 37580 ft | 483 kts | 100° |
| 2026-04-25 20:28 | 42.23973 | -0.45934 | 37720 ft | 482 kts | 100° |
| 2026-04-25 20:28 | 42.23371 | -0.41527 | 37854 ft | 482 kts | 100° |
| 2026-04-25 20:29 | 42.22764 | -0.37097 | 37991 ft | 481 kts | 100° |
| 2026-04-25 20:29 | 42.22147 | -0.32609 | 38128 ft | 480 kts | 101° |
| 2026-04-25 20:29 | 42.21024 | -0.23712 | 38150 ft | 483 kts | 95° |
| 2026-04-25 20:30 | 42.20632 | -0.14703 | 38159 ft | 485 kts | 94° |
| 2026-04-25 20:30 | 42.20246 | -0.05620 | 38166 ft | 485 kts | 93° |
| 2026-04-25 20:31 | 42.19859 | 0.03473 | 38175 ft | 486 kts | 93° |
| 2026-04-25 20:31 | 42.19465 | 0.12558 | 38148 ft | 485 kts | 93° |
| 2026-04-25 20:32 | 42.19068 | 0.21574 | 38148 ft | 486 kts | 93° |
| 2026-04-25 20:32 | 42.18662 | 0.30644 | 38136 ft | 485 kts | 93° |
| 2026-04-25 20:33 | 42.18247 | 0.39738 | 38146 ft | 484 kts | 93° |
| 2026-04-25 20:33 | 42.17897 | 0.47292 | 38147 ft | 484 kts | 93° |
| 2026-04-25 20:34 | 42.17399 | 0.57857 | 38150 ft | 484 kts | 93° |
| 2026-04-25 20:34 | 42.16967 | 0.66862 | 38149 ft | 485 kts | 94° |
| 2026-04-25 20:35 | 42.16526 | 0.75905 | 38145 ft | 484 kts | 94° |
| 2026-04-25 20:35 | 42.16076 | 0.84982 | 38150 ft | 484 kts | 94° |
| 2026-04-25 20:36 | 42.15624 | 0.93952 | 38155 ft | 483 kts | 94° |
| 2026-04-25 20:36 | 42.15160 | 1.03013 | 38154 ft | 482 kts | 94° |
| 2026-04-25 20:37 | 42.14695 | 1.11965 | 38161 ft | 483 kts | 94° |
| 2026-04-25 20:37 | 42.14219 | 1.20997 | 38167 ft | 482 kts | 94° |
| 2026-04-25 20:38 | 42.13738 | 1.29974 | 38175 ft | 483 kts | 94° |
| 2026-04-25 20:38 | 42.13144 | 1.39021 | 38170 ft | 484 kts | 95° |
| 2026-04-25 20:39 | 42.12507 | 1.48018 | 38164 ft | 482 kts | 95° |
| 2026-04-25 20:39 | 42.11974 | 1.55472 | 38164 ft | 481 kts | 95° |
| 2026-04-25 20:40 | 42.11220 | 1.65906 | 38157 ft | 481 kts | 96° |
| 2026-04-25 20:40 | 42.10568 | 1.74831 | 38150 ft | 480 kts | 96° |
| 2026-04-25 20:41 | 42.09907 | 1.83770 | 38147 ft | 481 kts | 96° |
| 2026-04-25 20:41 | 42.09239 | 1.92716 | 38153 ft | 480 kts | 96° |
| 2026-04-25 20:42 | 42.08565 | 2.01643 | 38151 ft | 481 kts | 95° |
| 2026-04-25 20:42 | 42.07883 | 2.10588 | 38144 ft | 482 kts | 95° |
| 2026-04-25 20:43 | 42.07192 | 2.19554 | 38142 ft | 481 kts | 95° |
| 2026-04-25 20:43 | 42.06498 | 2.28471 | 38136 ft | 480 kts | 95° |
| 2026-04-25 20:44 | 42.05795 | 2.37409 | 38131 ft | 480 kts | 95° |
| 2026-04-25 20:44 | 42.05087 | 2.46321 | 38126 ft | 479 kts | 95° |
| 2026-04-25 20:45 | 42.04372 | 2.55228 | 38121 ft | 480 kts | 95° |
| 2026-04-25 20:45 | 42.03650 | 2.64146 | 38109 ft | 479 kts | 95° |
| 2026-04-25 20:46 | 42.02920 | 2.73072 | 38104 ft | 479 kts | 96° |
| 2026-04-25 20:46 | 42.02551 | 2.77548 | 38335 ft | 480 kts | 96° |
| 2026-04-25 20:46 | 42.02185 | 2.81970 | 37782 ft | 481 kts | 96° |
| 2026-04-25 20:47 | 42.01816 | 2.86398 | 38206 ft | 472 kts | 96° |
| 2026-04-25 20:47 | 42.01448 | 2.90807 | 38056 ft | 476 kts | 96° |
| 2026-04-25 20:47 | 42.00701 | 2.99681 | 38096 ft | 478 kts | 96° |
| 2026-04-25 20:48 | 41.99946 | 3.08562 | 38092 ft | 479 kts | 96° |
| 2026-04-25 20:48 | 41.99181 | 3.17485 | 38089 ft | 478 kts | 96° |
| 2026-04-25 20:49 | 41.98412 | 3.26368 | 38095 ft | 478 kts | 96° |
| 2026-04-25 20:49 | 41.98025 | 3.30804 | 38317 ft | 479 kts | 96° |
| 2026-04-25 20:49 | 41.97632 | 3.35293 | 38069 ft | 480 kts | 96° |
| 2026-04-25 20:50 | 41.96859 | 3.44068 | 38090 ft | 475 kts | 96° |
| 2026-04-25 20:50 | 41.96072 | 3.52909 | 38093 ft | 478 kts | 96° |
| 2026-04-25 20:51 | 41.95271 | 3.61847 | 38090 ft | 479 kts | 96° |
| 2026-04-25 20:51 | 41.94470 | 3.70690 | 38094 ft | 479 kts | 96° |
| 2026-04-25 20:52 | 41.93795 | 3.78090 | 38090 ft | 478 kts | 96° |
| 2026-04-25 20:52 | 41.92948 | 3.88428 | 38095 ft | 477 kts | 90° |
| 2026-04-25 20:53 | 41.93829 | 3.97196 | 38108 ft | 474 kts | 71° |
| 2026-04-25 20:53 | 41.96346 | 4.05425 | 38092 ft | 474 kts | 65° |
| 2026-04-25 20:54 | 41.98960 | 4.13518 | 38089 ft | 474 kts | 65° |
| 2026-04-25 20:54 | 42.01601 | 4.21685 | 38103 ft | 474 kts | 65° |
| 2026-04-25 20:55 | 42.04735 | 4.29382 | 38118 ft | 471 kts | 54° |
| 2026-04-25 20:55 | 42.08323 | 4.36846 | 38098 ft | 472 kts | 56° |
| 2026-04-25 20:56 | 42.11773 | 4.44351 | 38095 ft | 471 kts | 57° |
| 2026-04-25 20:56 | 42.15203 | 4.51926 | 38093 ft | 471 kts | 57° |
| 2026-04-25 20:57 | 42.18601 | 4.59475 | 38094 ft | 472 kts | 57° |
| 2026-04-25 20:57 | 42.21998 | 4.67049 | 38093 ft | 472 kts | 58° |
| 2026-04-25 20:58 | 42.25410 | 4.74679 | 38100 ft | 472 kts | 57° |
| 2026-04-25 20:58 | 42.28804 | 4.82288 | 38098 ft | 472 kts | 58° |
| 2026-04-25 20:59 | 42.32172 | 4.89858 | 38089 ft | 472 kts | 58° |
| 2026-04-25 20:59 | 42.35555 | 4.97481 | 38090 ft | 472 kts | 58° |
| 2026-04-25 21:00 | 42.37805 | 5.02562 | 38087 ft | 472 kts | 57° |
| 2026-04-25 21:01 | 42.43967 | 5.16524 | 38092 ft | 472 kts | 57° |
| 2026-04-25 21:01 | 42.47362 | 5.24244 | 38086 ft | 474 kts | 57° |
| 2026-04-25 21:02 | 42.50731 | 5.31924 | 38090 ft | 474 kts | 57° |
| 2026-04-25 21:02 | 42.54082 | 5.39583 | 38091 ft | 473 kts | 58° |
| 2026-04-25 21:03 | 42.57428 | 5.47250 | 38096 ft | 473 kts | 58° |
| 2026-04-25 21:03 | 42.60785 | 5.54964 | 38102 ft | 474 kts | 58° |
| 2026-04-25 21:04 | 42.64132 | 5.62675 | 38093 ft | 475 kts | 58° |
| 2026-04-25 21:04 | 42.67479 | 5.70405 | 38095 ft | 474 kts | 58° |
| 2026-04-25 21:05 | 42.70832 | 5.78171 | 38092 ft | 475 kts | 58° |
| 2026-04-25 21:05 | 42.74177 | 5.85938 | 38097 ft | 475 kts | 58° |
| 2026-04-25 21:06 | 42.77511 | 5.93698 | 38095 ft | 475 kts | 58° |
| 2026-04-25 21:06 | 42.80832 | 6.01452 | 38093 ft | 475 kts | 58° |
| 2026-04-25 21:07 | 42.84161 | 6.09244 | 38091 ft | 475 kts | 58° |
| 2026-04-25 21:07 | 42.87478 | 6.17026 | 38091 ft | 473 kts | 58° |
| 2026-04-25 21:08 | 42.90782 | 6.24802 | 38093 ft | 474 kts | 58° |
| 2026-04-25 21:08 | 42.94099 | 6.32627 | 38092 ft | 475 kts | 58° |
| 2026-04-25 21:09 | 42.99061 | 6.44373 | 38090 ft | 474 kts | 58° |
| 2026-04-25 21:09 | 43.02345 | 6.52172 | 38088 ft | 473 kts | 58° |
| 2026-04-25 21:10 | 43.05625 | 6.59986 | 38091 ft | 474 kts | 58° |
| 2026-04-25 21:10 | 43.08903 | 6.67813 | 38085 ft | 474 kts | 59° |
| 2026-04-25 21:11 | 43.12194 | 6.75694 | 38085 ft | 474 kts | 59° |
| 2026-04-25 21:11 | 43.15451 | 6.83515 | 38091 ft | 475 kts | 59° |
| 2026-04-25 21:12 | 43.18715 | 6.91370 | 38088 ft | 475 kts | 59° |
| 2026-04-25 21:12 | 43.21434 | 6.97934 | 38088 ft | 475 kts | 59° |
| 2026-04-25 21:13 | 43.25252 | 7.07175 | 38090 ft | 475 kts | 59° |
| 2026-04-25 21:13 | 43.28505 | 7.15071 | 38089 ft | 475 kts | 59° |
| 2026-04-25 21:14 | 43.31753 | 7.22978 | 38090 ft | 476 kts | 59° |
| 2026-04-25 21:14 | 43.35007 | 7.30919 | 38090 ft | 476 kts | 59° |
| 2026-04-25 21:15 | 43.38251 | 7.38859 | 38088 ft | 476 kts | 59° |
| 2026-04-25 21:15 | 43.41472 | 7.46762 | 38090 ft | 476 kts | 59° |
| 2026-04-25 21:16 | 43.44725 | 7.54768 | 38089 ft | 476 kts | 59° |
| 2026-04-25 21:16 | 43.47931 | 7.62680 | 38091 ft | 476 kts | 59° |
| 2026-04-25 21:17 | 43.51150 | 7.70648 | 38089 ft | 476 kts | 59° |
| 2026-04-25 21:17 | 43.54370 | 7.78638 | 38089 ft | 476 kts | 59° |
| 2026-04-25 21:18 | 43.57593 | 7.86659 | 38089 ft | 476 kts | 59° |
| 2026-04-25 21:18 | 43.60793 | 7.94644 | 38089 ft | 477 kts | 59° |
| 2026-04-25 21:19 | 43.64599 | 8.02146 | 38107 ft | 473 kts | 44° |
| 2026-04-25 21:19 | 43.69609 | 8.07919 | 38092 ft | 474 kts | 38° |
| 2026-04-25 21:20 | 43.73701 | 8.13022 | 38090 ft | 473 kts | 41° |
| 2026-04-25 21:20 | 43.79237 | 8.20459 | 38091 ft | 473 kts | 43° |
| 2026-04-25 21:21 | 43.83898 | 8.26900 | 38090 ft | 473 kts | 43° |
| 2026-04-25 21:21 | 43.88514 | 8.33337 | 38090 ft | 472 kts | 43° |
| 2026-04-25 21:22 | 43.93138 | 8.39814 | 38092 ft | 473 kts | 43° |
| 2026-04-25 21:22 | 43.97784 | 8.46340 | 38089 ft | 474 kts | 43° |
| 2026-04-25 21:23 | 44.02416 | 8.52862 | 38085 ft | 475 kts | 43° |
| 2026-04-25 21:23 | 44.07074 | 8.59438 | 38091 ft | 475 kts | 43° |
| 2026-04-25 21:24 | 44.11683 | 8.65960 | 38086 ft | 474 kts | 44° |
| 2026-04-25 21:24 | 44.16319 | 8.72535 | 38081 ft | 474 kts | 44° |
| 2026-04-25 21:25 | 44.20935 | 8.79097 | 38085 ft | 474 kts | 44° |
| 2026-04-25 21:25 | 44.25565 | 8.85695 | 38080 ft | 474 kts | 44° |
| 2026-04-25 21:26 | 44.30165 | 8.92267 | 38086 ft | 474 kts | 44° |
| 2026-04-25 21:26 | 44.34755 | 8.98839 | 38083 ft | 475 kts | 43° |
| 2026-04-25 21:27 | 44.39389 | 9.05490 | 38084 ft | 475 kts | 44° |
| 2026-04-25 21:27 | 44.43975 | 9.12088 | 38086 ft | 475 kts | 43° |
| 2026-04-25 21:28 | 44.48611 | 9.18774 | 38101 ft | 475 kts | 43° |
| 2026-04-25 21:28 | 44.53154 | 9.25485 | 38103 ft | 476 kts | 49° |
| 2026-04-25 21:29 | 44.57209 | 9.32769 | 38101 ft | 477 kts | 49° |
| 2026-04-25 21:29 | 44.61374 | 9.40100 | 38102 ft | 477 kts | 49° |
| 2026-04-25 21:30 | 44.65512 | 9.47348 | 38095 ft | 477 kts | 49° |
| 2026-04-25 21:30 | 44.68965 | 9.53399 | 38095 ft | 477 kts | 48° |
| 2026-04-25 21:31 | 44.73810 | 9.61904 | 38088 ft | 478 kts | 48° |
| 2026-04-25 21:31 | 44.77965 | 9.69218 | 38077 ft | 478 kts | 49° |
| 2026-04-25 21:32 | 44.82129 | 9.76564 | 38062 ft | 478 kts | 49° |
| 2026-04-25 21:32 | 44.86242 | 9.83842 | 38070 ft | 478 kts | 49° |
| 2026-04-25 21:33 | 44.90401 | 9.91216 | 38053 ft | 478 kts | 49° |
| 2026-04-25 21:33 | 44.94526 | 9.98552 | 38051 ft | 477 kts | 49° |
| 2026-04-25 21:34 | 44.98640 | 10.05885 | 38044 ft | 477 kts | 49° |
| 2026-04-25 21:34 | 45.02759 | 10.13247 | 38042 ft | 477 kts | 49° |
| 2026-04-25 21:35 | 45.06900 | 10.20668 | 38042 ft | 478 kts | 49° |
| 2026-04-25 21:35 | 45.11012 | 10.28057 | 38035 ft | 478 kts | 49° |
| 2026-04-25 21:36 | 45.15115 | 10.35447 | 38029 ft | 478 kts | 49° |
| 2026-04-25 21:36 | 45.19229 | 10.42877 | 38025 ft | 478 kts | 49° |
| 2026-04-25 21:37 | 45.22642 | 10.49056 | 38030 ft | 478 kts | 49° |
| 2026-04-25 21:37 | 45.27402 | 10.57695 | 38032 ft | 477 kts | 49° |
| 2026-04-25 21:38 | 45.31484 | 10.65124 | 38032 ft | 478 kts | 49° |
| 2026-04-25 21:38 | 45.35583 | 10.72607 | 38025 ft | 478 kts | 49° |
| 2026-04-25 21:39 | 45.39653 | 10.80055 | 38031 ft | 478 kts | 49° |
| 2026-04-25 21:39 | 45.43734 | 10.87541 | 38034 ft | 477 kts | 49° |
| 2026-04-25 21:40 | 45.47793 | 10.95008 | 38038 ft | 477 kts | 49° |
| 2026-04-25 21:40 | 45.51846 | 11.02482 | 38043 ft | 476 kts | 49° |
| 2026-04-25 21:41 | 45.55884 | 11.09949 | 38049 ft | 477 kts | 49° |
| 2026-04-25 21:41 | 45.59948 | 11.17486 | 38043 ft | 477 kts | 49° |
| 2026-04-25 21:42 | 45.63978 | 11.24978 | 38059 ft | 477 kts | 49° |
| 2026-04-25 21:42 | 45.68027 | 11.32526 | 38061 ft | 477 kts | 49° |
| 2026-04-25 21:43 | 45.72061 | 11.40065 | 38061 ft | 477 kts | 49° |
| 2026-04-25 21:43 | 45.76070 | 11.47578 | 38062 ft | 476 kts | 49° |
| 2026-04-25 21:44 | 45.80087 | 11.55126 | 38068 ft | 478 kts | 49° |
| 2026-04-25 21:45 | 45.86106 | 11.66474 | 38066 ft | 477 kts | 50° |
| 2026-04-25 21:45 | 45.90136 | 11.74098 | 38058 ft | 478 kts | 50° |
| 2026-04-25 21:46 | 45.94146 | 11.81704 | 38060 ft | 478 kts | 50° |
| 2026-04-25 21:46 | 45.98129 | 11.89280 | 38061 ft | 477 kts | 50° |
| 2026-04-25 21:47 | 46.02138 | 11.96926 | 38081 ft | 477 kts | 50° |
| 2026-04-25 21:47 | 46.06129 | 12.04557 | 38085 ft | 477 kts | 49° |
| 2026-04-25 21:48 | 46.10105 | 12.12182 | 38100 ft | 477 kts | 50° |
| 2026-04-25 21:48 | 46.14111 | 12.19885 | 38099 ft | 479 kts | 50° |
| 2026-04-25 21:49 | 46.18095 | 12.27567 | 38110 ft | 478 kts | 50° |
| 2026-04-25 21:49 | 46.22060 | 12.35231 | 38112 ft | 477 kts | 50° |
| 2026-04-25 21:50 | 46.26011 | 12.42892 | 38124 ft | 476 kts | 50° |
| 2026-04-25 21:50 | 46.29969 | 12.50588 | 38124 ft | 478 kts | 49° |
| 2026-04-25 21:51 | 46.33915 | 12.58279 | 38113 ft | 478 kts | 49° |
| 2026-04-25 21:51 | 46.37865 | 12.65999 | 38127 ft | 477 kts | 50° |
| 2026-04-25 21:52 | 46.41803 | 12.73719 | 38132 ft | 477 kts | 50° |
| 2026-04-25 21:52 | 46.45721 | 12.81419 | 38138 ft | 476 kts | 50° |
| 2026-04-25 21:53 | 46.48909 | 12.89868 | 38153 ft | 484 kts | 68° |
| 2026-04-25 21:53 | 46.51182 | 12.99085 | 38115 ft | 484 kts | 65° |
| 2026-04-25 21:54 | 46.53727 | 13.08082 | 38120 ft | 483 kts | 64° |
| 2026-04-25 21:54 | 46.56363 | 13.17062 | 38143 ft | 483 kts | 63° |
| 2026-04-25 21:55 | 46.59029 | 13.26065 | 38140 ft | 484 kts | 63° |
| 2026-04-25 21:55 | 46.61689 | 13.35052 | 38149 ft | 483 kts | 63° |
| 2026-04-25 21:56 | 46.64316 | 13.43949 | 38148 ft | 483 kts | 63° |
| 2026-04-25 21:56 | 46.66960 | 13.52933 | 38153 ft | 483 kts | 63° |
| 2026-04-25 21:57 | 46.69587 | 13.61894 | 38147 ft | 483 kts | 63° |
| 2026-04-25 21:57 | 46.72228 | 13.70931 | 38138 ft | 483 kts | 64° |
| 2026-04-25 21:58 | 46.74837 | 13.79892 | 38138 ft | 482 kts | 64° |
| 2026-04-25 21:58 | 46.77459 | 13.88935 | 38133 ft | 482 kts | 64° |
| 2026-04-25 21:59 | 46.80050 | 13.97900 | 38139 ft | 481 kts | 64° |
| 2026-04-25 21:59 | 46.81339 | 14.02375 | 37838 ft | 475 kts | 64° |
| 2026-04-25 21:59 | 46.82596 | 14.06748 | 37388 ft | 468 kts | 64° |
| 2026-04-25 22:00 | 46.85087 | 14.15433 | 36475 ft | 460 kts | 64° |
| 2026-04-25 22:00 | 46.86309 | 14.19700 | 35987 ft | 457 kts | 64° |
| 2026-04-25 22:00 | 46.87531 | 14.23983 | 35473 ft | 451 kts | 64° |
| 2026-04-25 22:00 | 46.88727 | 14.28177 | 34962 ft | 449 kts | 63° |
| 2026-04-25 22:01 | 46.89938 | 14.32426 | 34480 ft | 453 kts | 64° |
| 2026-04-25 22:01 | 46.91140 | 14.36650 | 34002 ft | 456 kts | 64° |
| 2026-04-25 22:01 | 46.92352 | 14.40927 | 33539 ft | 455 kts | 64° |
| 2026-04-25 22:01 | 46.93149 | 14.43741 | 33238 ft | 454 kts | 64° |
| 2026-04-25 22:02 | 46.94770 | 14.49473 | 32628 ft | 456 kts | 64° |
| 2026-04-25 22:02 | 46.95974 | 14.53740 | 32184 ft | 459 kts | 64° |
| 2026-04-25 22:02 | 46.98378 | 14.62284 | 32082 ft | 456 kts | 64° |
| 2026-04-25 22:03 | 47.00808 | 14.70946 | 32084 ft | 464 kts | 65° |
| 2026-04-25 22:03 | 47.03263 | 14.79738 | 32071 ft | 463 kts | 65° |
| 2026-04-25 22:04 | 47.05669 | 14.88382 | 32003 ft | 463 kts | 65° |
| 2026-04-25 22:04 | 47.06899 | 14.92810 | 31523 ft | 463 kts | 65° |
| 2026-04-25 22:04 | 47.08087 | 14.97103 | 31057 ft | 458 kts | 65° |
| 2026-04-25 22:05 | 47.09274 | 15.01394 | 30584 ft | 454 kts | 65° |
| 2026-04-25 22:05 | 47.10442 | 15.05624 | 30120 ft | 450 kts | 65° |
| 2026-04-25 22:05 | 47.11612 | 15.09871 | 29647 ft | 446 kts | 65° |
| 2026-04-25 22:05 | 47.12771 | 15.14083 | 29114 ft | 443 kts | 65° |
| 2026-04-25 22:06 | 47.13915 | 15.18249 | 28562 ft | 442 kts | 65° |
| 2026-04-25 22:06 | 47.15057 | 15.22415 | 28000 ft | 441 kts | 65° |
| 2026-04-25 22:06 | 47.16203 | 15.26600 | 27425 ft | 439 kts | 65° |
| 2026-04-25 22:06 | 47.17337 | 15.30748 | 26857 ft | 438 kts | 65° |
| 2026-04-25 22:07 | 47.18457 | 15.34859 | 26295 ft | 436 kts | 65° |
| 2026-04-25 22:07 | 47.19206 | 15.37603 | 25919 ft | 435 kts | 65° |
| 2026-04-25 22:07 | 47.20697 | 15.43093 | 25164 ft | 433 kts | 65° |
| 2026-04-25 22:07 | 47.21804 | 15.47170 | 24600 ft | 431 kts | 65° |
| 2026-04-25 22:08 | 47.22916 | 15.51279 | 24029 ft | 429 kts | 65° |
| 2026-04-25 22:08 | 47.24002 | 15.55294 | 23467 ft | 427 kts | 65° |
| 2026-04-25 22:08 | 47.25102 | 15.59369 | 22888 ft | 425 kts | 65° |
| 2026-04-25 22:08 | 47.26189 | 15.63405 | 22316 ft | 423 kts | 65° |
| 2026-04-25 22:09 | 47.27253 | 15.67360 | 21756 ft | 420 kts | 65° |
| 2026-04-25 22:09 | 47.28322 | 15.71342 | 21187 ft | 418 kts | 65° |
| 2026-04-25 22:09 | 47.29388 | 15.75316 | 20617 ft | 416 kts | 65° |
| 2026-04-25 22:09 | 47.30439 | 15.79242 | 20046 ft | 413 kts | 66° |
| 2026-04-25 22:10 | 47.31497 | 15.83204 | 19485 ft | 411 kts | 66° |
| 2026-04-25 22:10 | 47.32524 | 15.87053 | 18924 ft | 408 kts | 66° |
| 2026-04-25 22:10 | 47.33566 | 15.90969 | 18425 ft | 404 kts | 66° |
| 2026-04-25 22:10 | 47.34584 | 15.94798 | 18061 ft | 396 kts | 66° |
| 2026-04-25 22:11 | 47.35616 | 15.98471 | 18038 ft | 377 kts | 59° |
| 2026-04-25 22:11 | 47.37060 | 16.01530 | 18051 ft | 356 kts | 42° |
| 2026-04-25 22:11 | 47.38950 | 16.03820 | 17684 ft | 356 kts | 26° |
| 2026-04-25 22:11 | 47.41053 | 16.05831 | 17189 ft | 363 kts | 36° |
| 2026-04-25 22:12 | 47.42791 | 16.08551 | 16700 ft | 365 kts | 47° |
| 2026-04-25 22:12 | 47.44445 | 16.11326 | 16265 ft | 361 kts | 42° |
| 2026-04-25 22:12 | 47.46204 | 16.14020 | 15803 ft | 358 kts | 41° |
| 2026-04-25 22:12 | 47.47371 | 16.15750 | 15500 ft | 356 kts | 40° |
| 2026-04-25 22:13 | 47.49709 | 16.19139 | 14919 ft | 353 kts | 39° |
| 2026-04-25 22:13 | 47.51469 | 16.21656 | 14468 ft | 350 kts | 39° |
| 2026-04-25 22:13 | 47.53214 | 16.24139 | 14017 ft | 348 kts | 39° |
| 2026-04-25 22:13 | 47.54961 | 16.26618 | 13573 ft | 346 kts | 39° |
| 2026-04-25 22:14 | 47.56689 | 16.29070 | 13147 ft | 343 kts | 39° |
| 2026-04-25 22:14 | 47.58387 | 16.31483 | 13023 ft | 331 kts | 39° |
| 2026-04-25 22:14 | 47.60011 | 16.33794 | 13008 ft | 318 kts | 38° |
| 2026-04-25 22:14 | 47.61638 | 16.36097 | 12708 ft | 331 kts | 38° |
| 2026-04-25 22:15 | 47.63313 | 16.38475 | 12291 ft | 337 kts | 38° |
| 2026-04-25 22:15 | 47.65006 | 16.40887 | 11926 ft | 333 kts | 38° |
| 2026-04-25 22:15 | 47.66644 | 16.43223 | 11563 ft | 329 kts | 38° |
| 2026-04-25 22:16 | 47.69940 | 16.47928 | 10831 ft | 323 kts | 38° |
| 2026-04-25 22:16 | 47.71550 | 16.50227 | 10466 ft | 320 kts | 38° |
| 2026-04-25 22:16 | 47.73131 | 16.52487 | 10052 ft | 320 kts | 38° |
| 2026-04-25 22:16 | 47.74743 | 16.54794 | 9599 ft | 319 kts | 38° |
| 2026-04-25 22:17 | 47.76326 | 16.57063 | 9133 ft | 313 kts | 39° |
| 2026-04-25 22:17 | 47.77724 | 16.59561 | 8691 ft | 315 kts | 53° |
| 2026-04-25 22:17 | 47.78823 | 16.62368 | 8248 ft | 311 kts | 54° |
| 2026-04-25 22:17 | 47.79876 | 16.65120 | 7885 ft | 304 kts | 56° |
| 2026-04-25 22:18 | 47.80917 | 16.67837 | 7498 ft | 299 kts | 56° |
| 2026-04-25 22:18 | 47.81930 | 16.70481 | 7117 ft | 294 kts | 56° |
| 2026-04-25 22:18 | 47.82938 | 16.73115 | 6717 ft | 289 kts | 56° |
| 2026-04-25 22:18 | 47.83921 | 16.75692 | 6339 ft | 285 kts | 55° |
| 2026-04-25 22:19 | 47.84893 | 16.78251 | 6008 ft | 279 kts | 56° |
| 2026-04-25 22:19 | 47.85809 | 16.80689 | 5985 ft | 263 kts | 55° |
| 2026-04-25 22:19 | 47.86676 | 16.83045 | 5986 ft | 250 kts | 55° |
| 2026-04-25 22:19 | 47.87497 | 16.85298 | 5997 ft | 244 kts | 55° |
| 2026-04-25 22:20 | 47.88294 | 16.87550 | 6001 ft | 250 kts | 63° |
| 2026-04-25 22:20 | 47.88676 | 16.90134 | 5830 ft | 269 kts | 86° |
| 2026-04-25 22:20 | 47.88392 | 16.92941 | 5490 ft | 275 kts | 104° |
| 2026-04-25 22:20 | 47.87815 | 16.95667 | 5127 ft | 277 kts | 105° |
| 2026-04-25 22:21 | 47.87229 | 16.98426 | 4764 ft | 280 kts | 105° |
| 2026-04-25 22:21 | 47.86642 | 17.01195 | 4392 ft | 282 kts | 105° |
| 2026-04-25 22:21 | 47.86049 | 17.03973 | 4036 ft | 282 kts | 103° |
| 2026-04-25 22:21 | 47.85811 | 17.06801 | 3975 ft | 263 kts | 80° |
| 2026-04-25 22:22 | 47.86269 | 17.09277 | 3975 ft | 240 kts | 55° |
| 2026-04-25 22:22 | 47.87300 | 17.11099 | 3984 ft | 223 kts | 30° |
| 2026-04-25 22:22 | 47.88649 | 17.12209 | 3984 ft | 220 kts | 11° |
| 2026-04-25 22:22 | 47.90138 | 17.12360 | 3993 ft | 214 kts | 345° |
| 2026-04-25 22:23 | 47.91494 | 17.11523 | 3983 ft | 204 kts | 328° |
| 2026-04-25 22:23 | 47.92677 | 17.10474 | 3990 ft | 190 kts | 328° |
| 2026-04-25 22:23 | 47.93653 | 17.09280 | 3962 ft | 176 kts | 303° |
| 2026-04-25 22:23 | 47.94189 | 17.07725 | 4017 ft | 164 kts | 299° |
| 2026-04-25 22:24 | 47.94722 | 17.06186 | 4014 ft | 169 kts | 300° |
| 2026-04-25 22:24 | 47.95274 | 17.04586 | 3983 ft | 173 kts | 300° |
| 2026-04-25 22:24 | 47.95821 | 17.02988 | 3970 ft | 171 kts | 300° |
| 2026-04-25 22:24 | 47.96360 | 17.01408 | 3970 ft | 171 kts | 300° |
| 2026-04-25 22:25 | 47.96901 | 16.99817 | 3973 ft | 172 kts | 300° |
| 2026-04-25 22:25 | 47.97444 | 16.98212 | 3957 ft | 171 kts | 300° |
| 2026-04-25 22:25 | 47.97977 | 16.96629 | 3964 ft | 170 kts | 299° |
| 2026-04-25 22:25 | 47.98510 | 16.95044 | 3971 ft | 172 kts | 299° |
| 2026-04-25 22:26 | 47.99044 | 16.93454 | 3973 ft | 171 kts | 299° |
| 2026-04-25 22:26 | 47.99578 | 16.91859 | 3977 ft | 170 kts | 298° |
| 2026-04-25 22:26 | 48.00110 | 16.90264 | 3966 ft | 170 kts | 298° |
| 2026-04-25 22:26 | 48.00637 | 16.88682 | 3975 ft | 169 kts | 298° |
| 2026-04-25 22:27 | 48.01158 | 16.87116 | 3972 ft | 169 kts | 298° |
| 2026-04-25 22:27 | 48.01688 | 16.85522 | 3978 ft | 170 kts | 298° |
| 2026-04-25 22:27 | 48.02208 | 16.83948 | 3975 ft | 168 kts | 299° |
| 2026-04-25 22:27 | 48.02713 | 16.82415 | 3947 ft | 155 kts | 299° |
| 2026-04-25 22:28 | 48.03166 | 16.81038 | 3948 ft | 139 kts | 300° |
| 2026-04-25 22:28 | 48.03597 | 16.79743 | 3922 ft | 146 kts | 300° |
| 2026-04-25 22:28 | 48.04068 | 16.78329 | 3728 ft | 151 kts | 299° |
| 2026-04-25 22:28 | 48.04526 | 16.76940 | 3499 ft | 148 kts | 299° |
| 2026-04-25 22:29 | 48.04977 | 16.75568 | 3272 ft | 146 kts | 299° |
| 2026-04-25 22:29 | 48.05421 | 16.74216 | 3061 ft | 147 kts | 299° |
| 2026-04-25 22:29 | 48.05877 | 16.72844 | 2858 ft | 146 kts | 299° |
| 2026-04-25 22:30 | 48.06774 | 16.70131 | 2447 ft | 145 kts | 298° |
| 2026-04-25 22:30 | 48.07206 | 16.68812 | 2217 ft | 133 kts | 298° |
| 2026-04-25 22:30 | 48.07594 | 16.67626 | 2006 ft | 122 kts | 297° |
| 2026-04-25 22:30 | 48.07840 | 16.66871 | 1908 ft | 121 kts | 297° |
| 2026-04-25 22:31 | 48.08347 | 16.65342 | 1733 ft | 124 kts | 296° |
| 2026-04-25 22:31 | 48.08723 | 16.64161 | 1552 ft | 126 kts | 296° |
| 2026-04-25 22:31 | 48.09127 | 16.62988 | 1348 ft | 126 kts | 298° |
| 2026-04-25 22:31 | 48.09526 | 16.61806 | 1190 ft | 127 kts | 295° |
| 2026-04-25 22:32 | 48.09923 | 16.60608 | 1059 ft | 128 kts | 296° |
| 2026-04-25 22:32 | 48.10315 | 16.59397 | 881 ft | 130 kts | 295° |
| 2026-04-25 22:32 | 48.10704 | 16.58177 | 716 ft | 131 kts | 295° |
| 2026-04-25 22:32 | 48.11093 | 16.56968 | 607 ft | 129 kts | 296° |
| 2026-04-25 22:33 | 48.11407 | 16.56020 | 590 ft | 70 kts | 296° |
| 2026-04-25 22:33 | 48.11560 | 16.55546 | 585 ft | 46 kts | 298° |
| 2026-04-25 22:33 | 48.11732 | 16.55240 | 585 ft | 31 kts | 316° |
| 2026-04-25 22:33 | 48.11841 | 16.55139 | 585 ft | 17 kts | 351° |
| 2026-04-25 22:34 | 48.11849 | 16.55138 | 585 ft | 0 kts | 4° |
| 2026-04-25 22:35 | 48.11853 | 16.55139 | 585 ft | 0 kts | 4° |
| 2026-04-25 22:35 | 48.11863 | 16.55141 | 585 ft | 2 kts | 14° |
| 2026-04-25 22:35 | 48.11880 | 16.55163 | 585 ft | 3 kts | 59° |
| 2026-04-25 22:36 | 48.11878 | 16.55217 | 585 ft | 9 kts | 109° |
| 2026-04-25 22:36 | 48.11833 | 16.55350 | 585 ft | 17 kts | 118° |
| 2026-04-25 22:36 | 48.11768 | 16.55557 | 585 ft | 20 kts | 116° |
| 2026-04-25 22:36 | 48.11705 | 16.55753 | 585 ft | 21 kts | 116° |
| 2026-04-25 22:37 | 48.11649 | 16.55923 | 587 ft | 14 kts | 116° |
| 2026-04-25 22:37 | 48.11606 | 16.56057 | 589 ft | 13 kts | 116° |
| 2026-04-25 22:37 | 48.11604 | 16.56170 | 592 ft | 10 kts | 50° |
| 2026-04-25 22:37 | 48.11655 | 16.56231 | 593 ft | 8 kts | 38° |
| 2026-04-25 22:38 | 48.11713 | 16.56283 | 594 ft | 11 kts | 27° |
| 2026-04-25 22:38 | 48.11755 | 16.56368 | 596 ft | 10 kts | 101° |
| 2026-04-25 22:38 | 48.11724 | 16.56473 | 599 ft | 11 kts | 116° |
| 2026-04-25 22:38 | 48.11686 | 16.56591 | 602 ft | 12 kts | 116° |
| 2026-04-25 22:39 | 48.11649 | 16.56705 | 605 ft | 11 kts | 115° |
| 2026-04-25 22:39 | 48.11615 | 16.56809 | 607 ft | 10 kts | 116° |
| 2026-04-25 22:39 | 48.11584 | 16.56905 | 608 ft | 10 kts | 116° |
| 2026-04-25 22:39 | 48.11545 | 16.57023 | 608 ft | 14 kts | 117° |
| 2026-04-25 22:40 | 48.11497 | 16.57173 | 608 ft | 16 kts | 116° |
| 2026-04-25 22:40 | 48.11475 | 16.57269 | 606 ft | 4 kts | 68° |
| 2026-04-25 22:40 | 48.11505 | 16.57303 | 605 ft | 6 kts | 28° |
| 2026-04-25 22:40 | 48.11536 | 16.57326 | 605 ft | 0 kts | 26° |